<?xml version="1.0" encoding="UTF-8" standalone="no" ?>
<gpx xmlns="http://www.topografix.com/GPX/1/1" xmlns:xsi="http://www.w3.org/2001/XMLSchema-instance" xsi:schemaLocation="http://www.topografix.com/GPX/1/1 http://www.topografix.com/GPX/1/1/gpx.xsd" version="1.1" creator="VisuGPX - https://www.visugpx.com">
  <metadata>
    <name>Roquefort - la brague</name>
  </metadata>
  <trk>
    <name><![CDATA[Roquefort - la brague]]></name>
    <trkseg>
      <trkpt lat="43.66117" lon="7.0601">
        <ele>200</ele>
        <time>2021-04-12T18:17:45+02:00</time>
      </trkpt>
      <trkpt lat="43.66117" lon="7.0601">
        <ele>200</ele>
        <time>2021-04-12T18:17:50+02:00</time>
      </trkpt>
      <trkpt lat="43.66098" lon="7.0593">
        <ele>196</ele>
        <time>2021-04-12T18:17:55+02:00</time>
      </trkpt>
      <trkpt lat="43.66095" lon="7.0592">
        <ele>195</ele>
        <time>2021-04-12T18:18:00+02:00</time>
      </trkpt>
      <trkpt lat="43.66094" lon="7.05913">
        <ele>194</ele>
        <time>2021-04-12T18:18:05+02:00</time>
      </trkpt>
      <trkpt lat="43.66095" lon="7.05894">
        <ele>191</ele>
        <time>2021-04-12T18:18:10+02:00</time>
      </trkpt>
      <trkpt lat="43.66082" lon="7.05885">
        <ele>190</ele>
        <time>2021-04-12T18:18:15+02:00</time>
      </trkpt>
      <trkpt lat="43.66077" lon="7.0588">
        <ele>190</ele>
        <time>2021-04-12T18:18:20+02:00</time>
      </trkpt>
      <trkpt lat="43.66064" lon="7.05857">
        <ele>187</ele>
        <time>2021-04-12T18:18:25+02:00</time>
      </trkpt>
      <trkpt lat="43.6604" lon="7.05813">
        <ele>179</ele>
        <time>2021-04-12T18:18:30+02:00</time>
      </trkpt>
      <trkpt lat="43.66034" lon="7.05787">
        <ele>175</ele>
        <time>2021-04-12T18:18:35+02:00</time>
      </trkpt>
      <trkpt lat="43.66025" lon="7.05759">
        <ele>171</ele>
        <time>2021-04-12T18:18:40+02:00</time>
      </trkpt>
      <trkpt lat="43.66015" lon="7.05715">
        <ele>168</ele>
        <time>2021-04-12T18:18:45+02:00</time>
      </trkpt>
      <trkpt lat="43.66006" lon="7.05687">
        <ele>166</ele>
        <time>2021-04-12T18:18:50+02:00</time>
      </trkpt>
      <trkpt lat="43.66" lon="7.05655">
        <ele>163</ele>
        <time>2021-04-12T18:18:55+02:00</time>
      </trkpt>
      <trkpt lat="43.65989" lon="7.0562">
        <ele>162</ele>
        <time>2021-04-12T18:19:00+02:00</time>
      </trkpt>
      <trkpt lat="43.65979" lon="7.056">
        <ele>158</ele>
        <time>2021-04-12T18:19:05+02:00</time>
      </trkpt>
      <trkpt lat="43.65969" lon="7.05595">
        <ele>157</ele>
        <time>2021-04-12T18:19:10+02:00</time>
      </trkpt>
      <trkpt lat="43.65966" lon="7.05591">
        <ele>155</ele>
        <time>2021-04-12T18:19:15+02:00</time>
      </trkpt>
      <trkpt lat="43.65967" lon="7.05589">
        <ele>154</ele>
        <time>2021-04-12T18:19:20+02:00</time>
      </trkpt>
      <trkpt lat="43.65968" lon="7.05589">
        <ele>154</ele>
        <time>2021-04-12T18:19:25+02:00</time>
      </trkpt>
      <trkpt lat="43.65974" lon="7.05588">
        <ele>154</ele>
        <time>2021-04-12T18:19:30+02:00</time>
      </trkpt>
      <trkpt lat="43.65975" lon="7.05583">
        <ele>152</ele>
        <time>2021-04-12T18:19:35+02:00</time>
      </trkpt>
      <trkpt lat="43.65972" lon="7.05578">
        <ele>150</ele>
        <time>2021-04-12T18:19:40+02:00</time>
      </trkpt>
      <trkpt lat="43.6596" lon="7.05571">
        <ele>148</ele>
        <time>2021-04-12T18:19:45+02:00</time>
      </trkpt>
      <trkpt lat="43.65949" lon="7.05571">
        <ele>148</ele>
        <time>2021-04-12T18:19:50+02:00</time>
      </trkpt>
      <trkpt lat="43.659" lon="7.0556">
        <ele>143</ele>
        <time>2021-04-12T18:19:55+02:00</time>
      </trkpt>
      <trkpt lat="43.65875" lon="7.05553">
        <ele>140</ele>
        <time>2021-04-12T18:20:00+02:00</time>
      </trkpt>
      <trkpt lat="43.65862" lon="7.05547">
        <ele>139</ele>
        <time>2021-04-12T18:20:05+02:00</time>
      </trkpt>
      <trkpt lat="43.6584" lon="7.05529">
        <ele>134</ele>
        <time>2021-04-12T18:20:10+02:00</time>
      </trkpt>
      <trkpt lat="43.6582" lon="7.05519">
        <ele>133</ele>
        <time>2021-04-12T18:20:15+02:00</time>
      </trkpt>
      <trkpt lat="43.65818" lon="7.05508">
        <ele>135</ele>
        <time>2021-04-12T18:20:20+02:00</time>
      </trkpt>
      <trkpt lat="43.65817" lon="7.05505">
        <ele>135</ele>
        <time>2021-04-12T18:20:25+02:00</time>
      </trkpt>
      <trkpt lat="43.65816" lon="7.05503">
        <ele>136</ele>
        <time>2021-04-12T18:20:30+02:00</time>
      </trkpt>
      <trkpt lat="43.6581" lon="7.05501">
        <ele>134</ele>
        <time>2021-04-12T18:20:35+02:00</time>
      </trkpt>
      <trkpt lat="43.658" lon="7.05497">
        <ele>133</ele>
        <time>2021-04-12T18:20:40+02:00</time>
      </trkpt>
      <trkpt lat="43.65787" lon="7.05487">
        <ele>133</ele>
        <time>2021-04-12T18:20:45+02:00</time>
      </trkpt>
      <trkpt lat="43.65774" lon="7.05486">
        <ele>131</ele>
        <time>2021-04-12T18:20:50+02:00</time>
      </trkpt>
      <trkpt lat="43.65771" lon="7.05485">
        <ele>131</ele>
        <time>2021-04-12T18:20:55+02:00</time>
      </trkpt>
      <trkpt lat="43.65769" lon="7.05478">
        <ele>132</ele>
        <time>2021-04-12T18:21:00+02:00</time>
      </trkpt>
      <trkpt lat="43.65765" lon="7.05454">
        <ele>138</ele>
        <time>2021-04-12T18:21:05+02:00</time>
      </trkpt>
      <trkpt lat="43.65765" lon="7.05436">
        <ele>144</ele>
        <time>2021-04-12T18:21:10+02:00</time>
      </trkpt>
      <trkpt lat="43.6576" lon="7.05421">
        <ele>149</ele>
        <time>2021-04-12T18:21:15+02:00</time>
      </trkpt>
      <trkpt lat="43.65753" lon="7.05405">
        <ele>153</ele>
        <time>2021-04-12T18:21:20+02:00</time>
      </trkpt>
      <trkpt lat="43.65752" lon="7.05392">
        <ele>155</ele>
        <time>2021-04-12T18:21:25+02:00</time>
      </trkpt>
      <trkpt lat="43.65754" lon="7.05386">
        <ele>157</ele>
        <time>2021-04-12T18:21:30+02:00</time>
      </trkpt>
      <trkpt lat="43.65747" lon="7.05371">
        <ele>159</ele>
        <time>2021-04-12T18:21:35+02:00</time>
      </trkpt>
      <trkpt lat="43.65737" lon="7.0536">
        <ele>162</ele>
        <time>2021-04-12T18:21:40+02:00</time>
      </trkpt>
      <trkpt lat="43.65728" lon="7.05354">
        <ele>164</ele>
        <time>2021-04-12T18:21:45+02:00</time>
      </trkpt>
      <trkpt lat="43.65721" lon="7.0535">
        <ele>166</ele>
        <time>2021-04-12T18:21:50+02:00</time>
      </trkpt>
      <trkpt lat="43.65707" lon="7.05349">
        <ele>167</ele>
        <time>2021-04-12T18:21:55+02:00</time>
      </trkpt>
      <trkpt lat="43.65697" lon="7.0534">
        <ele>170</ele>
        <time>2021-04-12T18:22:00+02:00</time>
      </trkpt>
      <trkpt lat="43.65687" lon="7.05327">
        <ele>172</ele>
        <time>2021-04-12T18:22:05+02:00</time>
      </trkpt>
      <trkpt lat="43.65678" lon="7.0532">
        <ele>174</ele>
        <time>2021-04-12T18:22:10+02:00</time>
      </trkpt>
      <trkpt lat="43.65676" lon="7.05314">
        <ele>175</ele>
        <time>2021-04-12T18:22:15+02:00</time>
      </trkpt>
      <trkpt lat="43.65675" lon="7.05307">
        <ele>176</ele>
        <time>2021-04-12T18:22:20+02:00</time>
      </trkpt>
      <trkpt lat="43.65674" lon="7.05307">
        <ele>176</ele>
        <time>2021-04-12T18:22:25+02:00</time>
      </trkpt>
      <trkpt lat="43.65675" lon="7.05307">
        <ele>176</ele>
        <time>2021-04-12T18:22:30+02:00</time>
      </trkpt>
      <trkpt lat="43.65677" lon="7.05302">
        <ele>177</ele>
        <time>2021-04-12T18:22:35+02:00</time>
      </trkpt>
      <trkpt lat="43.65692" lon="7.05286">
        <ele>177</ele>
        <time>2021-04-12T18:22:40+02:00</time>
      </trkpt>
      <trkpt lat="43.65695" lon="7.05275">
        <ele>178</ele>
        <time>2021-04-12T18:22:45+02:00</time>
      </trkpt>
      <trkpt lat="43.65683" lon="7.0526">
        <ele>180</ele>
        <time>2021-04-12T18:22:50+02:00</time>
      </trkpt>
      <trkpt lat="43.65681" lon="7.05257">
        <ele>181</ele>
        <time>2021-04-12T18:22:55+02:00</time>
      </trkpt>
      <trkpt lat="43.65679" lon="7.05254">
        <ele>181</ele>
        <time>2021-04-12T18:23:00+02:00</time>
      </trkpt>
      <trkpt lat="43.65675" lon="7.05258">
        <ele>181</ele>
        <time>2021-04-12T18:23:05+02:00</time>
      </trkpt>
      <trkpt lat="43.65672" lon="7.0526">
        <ele>181</ele>
        <time>2021-04-12T18:23:10+02:00</time>
      </trkpt>
      <trkpt lat="43.65668" lon="7.05248">
        <ele>182</ele>
        <time>2021-04-12T18:23:15+02:00</time>
      </trkpt>
      <trkpt lat="43.65664" lon="7.05225">
        <ele>184</ele>
        <time>2021-04-12T18:23:20+02:00</time>
      </trkpt>
      <trkpt lat="43.65665" lon="7.0521">
        <ele>185</ele>
        <time>2021-04-12T18:23:25+02:00</time>
      </trkpt>
      <trkpt lat="43.65688" lon="7.05167">
        <ele>186</ele>
        <time>2021-04-12T18:23:30+02:00</time>
      </trkpt>
      <trkpt lat="43.65723" lon="7.05049">
        <ele>189</ele>
        <time>2021-04-12T18:23:35+02:00</time>
      </trkpt>
      <trkpt lat="43.6573" lon="7.05034">
        <ele>189</ele>
        <time>2021-04-12T18:23:40+02:00</time>
      </trkpt>
      <trkpt lat="43.65726" lon="7.05036">
        <ele>189</ele>
        <time>2021-04-12T18:23:45+02:00</time>
      </trkpt>
      <trkpt lat="43.65728" lon="7.05041">
        <ele>189</ele>
        <time>2021-04-12T18:23:50+02:00</time>
      </trkpt>
      <trkpt lat="43.65743" lon="7.05029">
        <ele>188</ele>
        <time>2021-04-12T18:23:55+02:00</time>
      </trkpt>
      <trkpt lat="43.65765" lon="7.05019">
        <ele>187</ele>
        <time>2021-04-12T18:24:00+02:00</time>
      </trkpt>
      <trkpt lat="43.65791" lon="7.04994">
        <ele>185</ele>
        <time>2021-04-12T18:24:05+02:00</time>
      </trkpt>
      <trkpt lat="43.65801" lon="7.04978">
        <ele>184</ele>
        <time>2021-04-12T18:24:10+02:00</time>
      </trkpt>
      <trkpt lat="43.65816" lon="7.0496">
        <ele>184</ele>
        <time>2021-04-12T18:24:15+02:00</time>
      </trkpt>
      <trkpt lat="43.65834" lon="7.04945">
        <ele>184</ele>
        <time>2021-04-12T18:24:20+02:00</time>
      </trkpt>
      <trkpt lat="43.65844" lon="7.04939">
        <ele>183</ele>
        <time>2021-04-12T18:24:25+02:00</time>
      </trkpt>
      <trkpt lat="43.65854" lon="7.04936">
        <ele>183</ele>
        <time>2021-04-12T18:24:30+02:00</time>
      </trkpt>
      <trkpt lat="43.65868" lon="7.0493">
        <ele>183</ele>
        <time>2021-04-12T18:24:35+02:00</time>
      </trkpt>
      <trkpt lat="43.6588" lon="7.04923">
        <ele>183</ele>
        <time>2021-04-12T18:24:40+02:00</time>
      </trkpt>
      <trkpt lat="43.65915" lon="7.04914">
        <ele>183</ele>
        <time>2021-04-12T18:24:45+02:00</time>
      </trkpt>
      <trkpt lat="43.65955" lon="7.04891">
        <ele>185</ele>
        <time>2021-04-12T18:24:50+02:00</time>
      </trkpt>
      <trkpt lat="43.65971" lon="7.04879">
        <ele>185</ele>
        <time>2021-04-12T18:24:55+02:00</time>
      </trkpt>
      <trkpt lat="43.65996" lon="7.04854">
        <ele>185</ele>
        <time>2021-04-12T18:25:00+02:00</time>
      </trkpt>
      <trkpt lat="43.66002" lon="7.04846">
        <ele>185</ele>
        <time>2021-04-12T18:25:05+02:00</time>
      </trkpt>
      <trkpt lat="43.66008" lon="7.04839">
        <ele>185</ele>
        <time>2021-04-12T18:25:10+02:00</time>
      </trkpt>
      <trkpt lat="43.66012" lon="7.04835">
        <ele>185</ele>
        <time>2021-04-12T18:25:15+02:00</time>
      </trkpt>
      <trkpt lat="43.66023" lon="7.04821">
        <ele>185</ele>
        <time>2021-04-12T18:25:20+02:00</time>
      </trkpt>
      <trkpt lat="43.66028" lon="7.04815">
        <ele>185</ele>
        <time>2021-04-12T18:25:25+02:00</time>
      </trkpt>
      <trkpt lat="43.66043" lon="7.0479">
        <ele>185</ele>
        <time>2021-04-12T18:25:30+02:00</time>
      </trkpt>
      <trkpt lat="43.66048" lon="7.0478">
        <ele>185</ele>
        <time>2021-04-12T18:25:35+02:00</time>
      </trkpt>
      <trkpt lat="43.66052" lon="7.04774">
        <ele>185</ele>
        <time>2021-04-12T18:25:40+02:00</time>
      </trkpt>
      <trkpt lat="43.66071" lon="7.04747">
        <ele>185</ele>
        <time>2021-04-12T18:25:45+02:00</time>
      </trkpt>
      <trkpt lat="43.66101" lon="7.04729">
        <ele>185</ele>
        <time>2021-04-12T18:25:50+02:00</time>
      </trkpt>
      <trkpt lat="43.66108" lon="7.04726">
        <ele>185</ele>
        <time>2021-04-12T18:25:55+02:00</time>
      </trkpt>
      <trkpt lat="43.66113" lon="7.04723">
        <ele>185</ele>
        <time>2021-04-12T18:26:00+02:00</time>
      </trkpt>
      <trkpt lat="43.66139" lon="7.04707">
        <ele>185</ele>
        <time>2021-04-12T18:26:05+02:00</time>
      </trkpt>
      <trkpt lat="43.6618" lon="7.04684">
        <ele>189</ele>
        <time>2021-04-12T18:26:10+02:00</time>
      </trkpt>
      <trkpt lat="43.662" lon="7.0467">
        <ele>189</ele>
        <time>2021-04-12T18:26:15+02:00</time>
      </trkpt>
      <trkpt lat="43.66217" lon="7.04658">
        <ele>190</ele>
        <time>2021-04-12T18:26:20+02:00</time>
      </trkpt>
      <trkpt lat="43.66241" lon="7.04642">
        <ele>190</ele>
        <time>2021-04-12T18:26:25+02:00</time>
      </trkpt>
      <trkpt lat="43.66263" lon="7.04623">
        <ele>190</ele>
        <time>2021-04-12T18:26:30+02:00</time>
      </trkpt>
      <trkpt lat="43.66272" lon="7.04615">
        <ele>190</ele>
        <time>2021-04-12T18:26:35+02:00</time>
      </trkpt>
      <trkpt lat="43.66287" lon="7.04604">
        <ele>190</ele>
        <time>2021-04-12T18:26:40+02:00</time>
      </trkpt>
      <trkpt lat="43.66308" lon="7.0459">
        <ele>190</ele>
        <time>2021-04-12T18:26:45+02:00</time>
      </trkpt>
      <trkpt lat="43.66322" lon="7.04582">
        <ele>190</ele>
        <time>2021-04-12T18:26:50+02:00</time>
      </trkpt>
      <trkpt lat="43.66339" lon="7.0458">
        <ele>190</ele>
        <time>2021-04-12T18:26:55+02:00</time>
      </trkpt>
      <trkpt lat="43.66341" lon="7.0458">
        <ele>190</ele>
        <time>2021-04-12T18:27:00+02:00</time>
      </trkpt>
      <trkpt lat="43.66343" lon="7.04579">
        <ele>190</ele>
        <time>2021-04-12T18:27:05+02:00</time>
      </trkpt>
      <trkpt lat="43.66384" lon="7.04575">
        <ele>190</ele>
        <time>2021-04-12T18:27:10+02:00</time>
      </trkpt>
      <trkpt lat="43.66453" lon="7.04567">
        <ele>186</ele>
        <time>2021-04-12T18:27:15+02:00</time>
      </trkpt>
      <trkpt lat="43.6646" lon="7.04563">
        <ele>186</ele>
        <time>2021-04-12T18:27:20+02:00</time>
      </trkpt>
      <trkpt lat="43.66468" lon="7.04556">
        <ele>185</ele>
        <time>2021-04-12T18:27:25+02:00</time>
      </trkpt>
      <trkpt lat="43.66469" lon="7.04557">
        <ele>185</ele>
        <time>2021-04-12T18:27:30+02:00</time>
      </trkpt>
      <trkpt lat="43.66471" lon="7.04559">
        <ele>185</ele>
        <time>2021-04-12T18:27:35+02:00</time>
      </trkpt>
      <trkpt lat="43.66473" lon="7.04561">
        <ele>185</ele>
        <time>2021-04-12T18:27:40+02:00</time>
      </trkpt>
      <trkpt lat="43.66474" lon="7.04562">
        <ele>185</ele>
        <time>2021-04-12T18:27:45+02:00</time>
      </trkpt>
      <trkpt lat="43.66477" lon="7.04562">
        <ele>185</ele>
        <time>2021-04-12T18:27:50+02:00</time>
      </trkpt>
      <trkpt lat="43.66479" lon="7.04562">
        <ele>185</ele>
        <time>2021-04-12T18:27:55+02:00</time>
      </trkpt>
      <trkpt lat="43.66482" lon="7.04561">
        <ele>185</ele>
        <time>2021-04-12T18:28:00+02:00</time>
      </trkpt>
      <trkpt lat="43.66484" lon="7.04559">
        <ele>185</ele>
        <time>2021-04-12T18:28:05+02:00</time>
      </trkpt>
      <trkpt lat="43.66486" lon="7.04557">
        <ele>185</ele>
        <time>2021-04-12T18:28:10+02:00</time>
      </trkpt>
      <trkpt lat="43.66488" lon="7.04553">
        <ele>185</ele>
        <time>2021-04-12T18:28:15+02:00</time>
      </trkpt>
      <trkpt lat="43.66489" lon="7.04549">
        <ele>185</ele>
        <time>2021-04-12T18:28:20+02:00</time>
      </trkpt>
      <trkpt lat="43.66542" lon="7.04529">
        <ele>188</ele>
        <time>2021-04-12T18:28:25+02:00</time>
      </trkpt>
      <trkpt lat="43.66582" lon="7.04513">
        <ele>190</ele>
        <time>2021-04-12T18:28:30+02:00</time>
      </trkpt>
      <trkpt lat="43.666" lon="7.04505">
        <ele>190</ele>
        <time>2021-04-12T18:28:35+02:00</time>
      </trkpt>
      <trkpt lat="43.66608" lon="7.04499">
        <ele>190</ele>
        <time>2021-04-12T18:28:40+02:00</time>
      </trkpt>
      <trkpt lat="43.66649" lon="7.04461">
        <ele>190</ele>
        <time>2021-04-12T18:28:45+02:00</time>
      </trkpt>
      <trkpt lat="43.66675" lon="7.04436">
        <ele>190</ele>
        <time>2021-04-12T18:28:50+02:00</time>
      </trkpt>
      <trkpt lat="43.66706" lon="7.04413">
        <ele>191</ele>
        <time>2021-04-12T18:28:55+02:00</time>
      </trkpt>
      <trkpt lat="43.66745" lon="7.04382">
        <ele>190</ele>
        <time>2021-04-12T18:29:00+02:00</time>
      </trkpt>
      <trkpt lat="43.66747" lon="7.04387">
        <ele>190</ele>
        <time>2021-04-12T18:29:05+02:00</time>
      </trkpt>
      <trkpt lat="43.66745" lon="7.04382">
        <ele>190</ele>
        <time>2021-04-12T18:29:10+02:00</time>
      </trkpt>
      <trkpt lat="43.66733" lon="7.0435">
        <ele>192</ele>
        <time>2021-04-12T18:29:15+02:00</time>
      </trkpt>
      <trkpt lat="43.66712" lon="7.04308">
        <ele>194</ele>
        <time>2021-04-12T18:29:20+02:00</time>
      </trkpt>
      <trkpt lat="43.66705" lon="7.04299">
        <ele>194</ele>
        <time>2021-04-12T18:29:25+02:00</time>
      </trkpt>
      <trkpt lat="43.66697" lon="7.04298">
        <ele>194</ele>
        <time>2021-04-12T18:29:30+02:00</time>
      </trkpt>
      <trkpt lat="43.66667" lon="7.04311">
        <ele>191</ele>
        <time>2021-04-12T18:29:35+02:00</time>
      </trkpt>
      <trkpt lat="43.66644" lon="7.0432">
        <ele>190</ele>
        <time>2021-04-12T18:29:40+02:00</time>
      </trkpt>
      <trkpt lat="43.66641" lon="7.04312">
        <ele>190</ele>
        <time>2021-04-12T18:29:45+02:00</time>
      </trkpt>
      <trkpt lat="43.66627" lon="7.04284">
        <ele>190</ele>
        <time>2021-04-12T18:29:50+02:00</time>
      </trkpt>
      <trkpt lat="43.66615" lon="7.04252">
        <ele>188</ele>
        <time>2021-04-12T18:29:55+02:00</time>
      </trkpt>
      <trkpt lat="43.66603" lon="7.0421">
        <ele>184</ele>
        <time>2021-04-12T18:30:00+02:00</time>
      </trkpt>
      <trkpt lat="43.66615" lon="7.04179">
        <ele>184</ele>
        <time>2021-04-12T18:30:05+02:00</time>
      </trkpt>
      <trkpt lat="43.66623" lon="7.04157">
        <ele>183</ele>
        <time>2021-04-12T18:30:10+02:00</time>
      </trkpt>
      <trkpt lat="43.66615" lon="7.04147">
        <ele>182</ele>
        <time>2021-04-12T18:30:15+02:00</time>
      </trkpt>
      <trkpt lat="43.66604" lon="7.04117">
        <ele>182</ele>
        <time>2021-04-12T18:30:20+02:00</time>
      </trkpt>
      <trkpt lat="43.666" lon="7.04101">
        <ele>184</ele>
        <time>2021-04-12T18:30:25+02:00</time>
      </trkpt>
      <trkpt lat="43.66602" lon="7.04098">
        <ele>184</ele>
        <time>2021-04-12T18:30:30+02:00</time>
      </trkpt>
      <trkpt lat="43.6659" lon="7.04097">
        <ele>184</ele>
        <time>2021-04-12T18:30:35+02:00</time>
      </trkpt>
      <trkpt lat="43.66582" lon="7.041">
        <ele>184</ele>
        <time>2021-04-12T18:30:40+02:00</time>
      </trkpt>
      <trkpt lat="43.66573" lon="7.04105">
        <ele>184</ele>
        <time>2021-04-12T18:30:45+02:00</time>
      </trkpt>
      <trkpt lat="43.66569" lon="7.04108">
        <ele>184</ele>
        <time>2021-04-12T18:30:50+02:00</time>
      </trkpt>
      <trkpt lat="43.66562" lon="7.0411">
        <ele>184</ele>
        <time>2021-04-12T18:30:55+02:00</time>
      </trkpt>
      <trkpt lat="43.66551" lon="7.0411">
        <ele>185</ele>
        <time>2021-04-12T18:31:00+02:00</time>
      </trkpt>
      <trkpt lat="43.66537" lon="7.04104">
        <ele>187</ele>
        <time>2021-04-12T18:31:05+02:00</time>
      </trkpt>
      <trkpt lat="43.66533" lon="7.04094">
        <ele>189</ele>
        <time>2021-04-12T18:31:10+02:00</time>
      </trkpt>
      <trkpt lat="43.66525" lon="7.04087">
        <ele>190</ele>
        <time>2021-04-12T18:31:15+02:00</time>
      </trkpt>
      <trkpt lat="43.66506" lon="7.04077">
        <ele>192</ele>
        <time>2021-04-12T18:31:20+02:00</time>
      </trkpt>
      <trkpt lat="43.66498" lon="7.04063">
        <ele>194</ele>
        <time>2021-04-12T18:31:25+02:00</time>
      </trkpt>
      <trkpt lat="43.66492" lon="7.04055">
        <ele>194</ele>
        <time>2021-04-12T18:31:30+02:00</time>
      </trkpt>
      <trkpt lat="43.66478" lon="7.04042">
        <ele>193</ele>
        <time>2021-04-12T18:31:35+02:00</time>
      </trkpt>
      <trkpt lat="43.66463" lon="7.04012">
        <ele>192</ele>
        <time>2021-04-12T18:31:40+02:00</time>
      </trkpt>
      <trkpt lat="43.66439" lon="7.03964">
        <ele>190</ele>
        <time>2021-04-12T18:31:45+02:00</time>
      </trkpt>
      <trkpt lat="43.66423" lon="7.03979">
        <ele>186</ele>
        <time>2021-04-12T18:31:50+02:00</time>
      </trkpt>
      <trkpt lat="43.66418" lon="7.03979">
        <ele>186</ele>
        <time>2021-04-12T18:31:55+02:00</time>
      </trkpt>
      <trkpt lat="43.6641" lon="7.03977">
        <ele>185</ele>
        <time>2021-04-12T18:32:00+02:00</time>
      </trkpt>
      <trkpt lat="43.66405" lon="7.03974">
        <ele>185</ele>
        <time>2021-04-12T18:32:05+02:00</time>
      </trkpt>
      <trkpt lat="43.664" lon="7.03968">
        <ele>184</ele>
        <time>2021-04-12T18:32:10+02:00</time>
      </trkpt>
      <trkpt lat="43.66394" lon="7.03965">
        <ele>184</ele>
        <time>2021-04-12T18:32:15+02:00</time>
      </trkpt>
      <trkpt lat="43.66386" lon="7.03965">
        <ele>183</ele>
        <time>2021-04-12T18:32:20+02:00</time>
      </trkpt>
      <trkpt lat="43.66382" lon="7.03966">
        <ele>183</ele>
        <time>2021-04-12T18:32:25+02:00</time>
      </trkpt>
      <trkpt lat="43.66349" lon="7.03897">
        <ele>182</ele>
        <time>2021-04-12T18:32:30+02:00</time>
      </trkpt>
      <trkpt lat="43.66341" lon="7.03889">
        <ele>181</ele>
        <time>2021-04-12T18:32:35+02:00</time>
      </trkpt>
      <trkpt lat="43.66332" lon="7.03888">
        <ele>180</ele>
        <time>2021-04-12T18:32:40+02:00</time>
      </trkpt>
      <trkpt lat="43.66332" lon="7.03885">
        <ele>180</ele>
        <time>2021-04-12T18:32:45+02:00</time>
      </trkpt>
      <trkpt lat="43.66331" lon="7.03884">
        <ele>180</ele>
        <time>2021-04-12T18:32:50+02:00</time>
      </trkpt>
      <trkpt lat="43.6633" lon="7.03881">
        <ele>180</ele>
        <time>2021-04-12T18:32:55+02:00</time>
      </trkpt>
      <trkpt lat="43.66328" lon="7.03879">
        <ele>180</ele>
        <time>2021-04-12T18:33:00+02:00</time>
      </trkpt>
      <trkpt lat="43.66326" lon="7.03878">
        <ele>180</ele>
        <time>2021-04-12T18:33:05+02:00</time>
      </trkpt>
      <trkpt lat="43.66321" lon="7.03869">
        <ele>180</ele>
        <time>2021-04-12T18:33:10+02:00</time>
      </trkpt>
      <trkpt lat="43.66319" lon="7.03864">
        <ele>179</ele>
        <time>2021-04-12T18:33:15+02:00</time>
      </trkpt>
      <trkpt lat="43.66314" lon="7.03855">
        <ele>179</ele>
        <time>2021-04-12T18:33:20+02:00</time>
      </trkpt>
      <trkpt lat="43.66309" lon="7.03846">
        <ele>180</ele>
        <time>2021-04-12T18:33:25+02:00</time>
      </trkpt>
      <trkpt lat="43.66304" lon="7.03838">
        <ele>180</ele>
        <time>2021-04-12T18:33:30+02:00</time>
      </trkpt>
      <trkpt lat="43.66298" lon="7.03831">
        <ele>180</ele>
        <time>2021-04-12T18:33:35+02:00</time>
      </trkpt>
      <trkpt lat="43.66291" lon="7.03825">
        <ele>180</ele>
        <time>2021-04-12T18:33:40+02:00</time>
      </trkpt>
      <trkpt lat="43.66289" lon="7.03823">
        <ele>180</ele>
        <time>2021-04-12T18:33:45+02:00</time>
      </trkpt>
      <trkpt lat="43.66286" lon="7.0382">
        <ele>180</ele>
        <time>2021-04-12T18:33:50+02:00</time>
      </trkpt>
      <trkpt lat="43.66281" lon="7.03816">
        <ele>180</ele>
        <time>2021-04-12T18:33:55+02:00</time>
      </trkpt>
      <trkpt lat="43.66276" lon="7.03812">
        <ele>181</ele>
        <time>2021-04-12T18:34:00+02:00</time>
      </trkpt>
      <trkpt lat="43.66273" lon="7.0381">
        <ele>181</ele>
        <time>2021-04-12T18:34:05+02:00</time>
      </trkpt>
      <trkpt lat="43.66267" lon="7.03805">
        <ele>181</ele>
        <time>2021-04-12T18:34:10+02:00</time>
      </trkpt>
      <trkpt lat="43.66264" lon="7.03802">
        <ele>182</ele>
        <time>2021-04-12T18:34:15+02:00</time>
      </trkpt>
      <trkpt lat="43.66261" lon="7.03799">
        <ele>182</ele>
        <time>2021-04-12T18:34:20+02:00</time>
      </trkpt>
      <trkpt lat="43.66258" lon="7.03796">
        <ele>182</ele>
        <time>2021-04-12T18:34:25+02:00</time>
      </trkpt>
      <trkpt lat="43.66251" lon="7.03789">
        <ele>183</ele>
        <time>2021-04-12T18:34:30+02:00</time>
      </trkpt>
      <trkpt lat="43.66249" lon="7.03784">
        <ele>184</ele>
        <time>2021-04-12T18:34:35+02:00</time>
      </trkpt>
      <trkpt lat="43.66246" lon="7.03779">
        <ele>184</ele>
        <time>2021-04-12T18:34:40+02:00</time>
      </trkpt>
      <trkpt lat="43.66244" lon="7.03775">
        <ele>184</ele>
        <time>2021-04-12T18:34:45+02:00</time>
      </trkpt>
      <trkpt lat="43.6624" lon="7.03765">
        <ele>186</ele>
        <time>2021-04-12T18:34:50+02:00</time>
      </trkpt>
      <trkpt lat="43.66238" lon="7.03756">
        <ele>186</ele>
        <time>2021-04-12T18:34:55+02:00</time>
      </trkpt>
      <trkpt lat="43.66236" lon="7.03746">
        <ele>187</ele>
        <time>2021-04-12T18:35:00+02:00</time>
      </trkpt>
      <trkpt lat="43.66233" lon="7.03737">
        <ele>188</ele>
        <time>2021-04-12T18:35:05+02:00</time>
      </trkpt>
      <trkpt lat="43.66231" lon="7.03734">
        <ele>188</ele>
        <time>2021-04-12T18:35:10+02:00</time>
      </trkpt>
      <trkpt lat="43.66229" lon="7.03731">
        <ele>188</ele>
        <time>2021-04-12T18:35:15+02:00</time>
      </trkpt>
      <trkpt lat="43.66227" lon="7.0373">
        <ele>188</ele>
        <time>2021-04-12T18:35:20+02:00</time>
      </trkpt>
      <trkpt lat="43.66225" lon="7.03729">
        <ele>189</ele>
        <time>2021-04-12T18:35:25+02:00</time>
      </trkpt>
      <trkpt lat="43.66223" lon="7.03727">
        <ele>189</ele>
        <time>2021-04-12T18:35:30+02:00</time>
      </trkpt>
      <trkpt lat="43.66226" lon="7.03721">
        <ele>189</ele>
        <time>2021-04-12T18:35:35+02:00</time>
      </trkpt>
      <trkpt lat="43.66228" lon="7.03716">
        <ele>189</ele>
        <time>2021-04-12T18:35:40+02:00</time>
      </trkpt>
      <trkpt lat="43.66222" lon="7.0371">
        <ele>189</ele>
        <time>2021-04-12T18:35:45+02:00</time>
      </trkpt>
      <trkpt lat="43.66217" lon="7.03706">
        <ele>189</ele>
        <time>2021-04-12T18:35:50+02:00</time>
      </trkpt>
      <trkpt lat="43.66212" lon="7.03704">
        <ele>189</ele>
        <time>2021-04-12T18:35:55+02:00</time>
      </trkpt>
      <trkpt lat="43.66207" lon="7.03697">
        <ele>189</ele>
        <time>2021-04-12T18:36:00+02:00</time>
      </trkpt>
      <trkpt lat="43.66198" lon="7.03669">
        <ele>190</ele>
        <time>2021-04-12T18:36:05+02:00</time>
      </trkpt>
      <trkpt lat="43.66189" lon="7.03643">
        <ele>189</ele>
        <time>2021-04-12T18:36:10+02:00</time>
      </trkpt>
      <trkpt lat="43.66175" lon="7.03579">
        <ele>183</ele>
        <time>2021-04-12T18:36:15+02:00</time>
      </trkpt>
      <trkpt lat="43.66169" lon="7.03554">
        <ele>181</ele>
        <time>2021-04-12T18:36:20+02:00</time>
      </trkpt>
      <trkpt lat="43.66165" lon="7.03543">
        <ele>181</ele>
        <time>2021-04-12T18:36:25+02:00</time>
      </trkpt>
      <trkpt lat="43.66156" lon="7.03523">
        <ele>179</ele>
        <time>2021-04-12T18:36:30+02:00</time>
      </trkpt>
      <trkpt lat="43.66151" lon="7.03512">
        <ele>178</ele>
        <time>2021-04-12T18:36:35+02:00</time>
      </trkpt>
      <trkpt lat="43.66145" lon="7.03486">
        <ele>178</ele>
        <time>2021-04-12T18:36:40+02:00</time>
      </trkpt>
      <trkpt lat="43.66143" lon="7.03495">
        <ele>178</ele>
        <time>2021-04-12T18:36:45+02:00</time>
      </trkpt>
      <trkpt lat="43.66139" lon="7.03473">
        <ele>178</ele>
        <time>2021-04-12T18:36:50+02:00</time>
      </trkpt>
      <trkpt lat="43.66136" lon="7.03457">
        <ele>178</ele>
        <time>2021-04-12T18:36:55+02:00</time>
      </trkpt>
      <trkpt lat="43.66136" lon="7.03455">
        <ele>178</ele>
        <time>2021-04-12T18:37:00+02:00</time>
      </trkpt>
      <trkpt lat="43.66135" lon="7.03452">
        <ele>178</ele>
        <time>2021-04-12T18:37:05+02:00</time>
      </trkpt>
      <trkpt lat="43.66134" lon="7.03446">
        <ele>178</ele>
        <time>2021-04-12T18:37:10+02:00</time>
      </trkpt>
      <trkpt lat="43.66131" lon="7.03434">
        <ele>178</ele>
        <time>2021-04-12T18:37:15+02:00</time>
      </trkpt>
      <trkpt lat="43.66119" lon="7.03432">
        <ele>177</ele>
        <time>2021-04-12T18:37:20+02:00</time>
      </trkpt>
      <trkpt lat="43.66102" lon="7.0342">
        <ele>178</ele>
        <time>2021-04-12T18:37:25+02:00</time>
      </trkpt>
      <trkpt lat="43.66087" lon="7.03411">
        <ele>180</ele>
        <time>2021-04-12T18:37:30+02:00</time>
      </trkpt>
      <trkpt lat="43.66083" lon="7.03409">
        <ele>181</ele>
        <time>2021-04-12T18:37:35+02:00</time>
      </trkpt>
      <trkpt lat="43.66074" lon="7.03432">
        <ele>183</ele>
        <time>2021-04-12T18:37:40+02:00</time>
      </trkpt>
      <trkpt lat="43.66059" lon="7.03463">
        <ele>186</ele>
        <time>2021-04-12T18:37:45+02:00</time>
      </trkpt>
      <trkpt lat="43.66051" lon="7.03469">
        <ele>187</ele>
        <time>2021-04-12T18:37:50+02:00</time>
      </trkpt>
      <trkpt lat="43.66035" lon="7.03476">
        <ele>189</ele>
        <time>2021-04-12T18:37:55+02:00</time>
      </trkpt>
      <trkpt lat="43.65989" lon="7.03483">
        <ele>188</ele>
        <time>2021-04-12T18:38:00+02:00</time>
      </trkpt>
      <trkpt lat="43.65986" lon="7.03483">
        <ele>188</ele>
        <time>2021-04-12T18:38:05+02:00</time>
      </trkpt>
      <trkpt lat="43.65943" lon="7.03493">
        <ele>185</ele>
        <time>2021-04-12T18:38:10+02:00</time>
      </trkpt>
      <trkpt lat="43.65885" lon="7.03495">
        <ele>187</ele>
        <time>2021-04-12T18:38:15+02:00</time>
      </trkpt>
      <trkpt lat="43.6588" lon="7.03496">
        <ele>187</ele>
        <time>2021-04-12T18:38:20+02:00</time>
      </trkpt>
      <trkpt lat="43.65869" lon="7.0353">
        <ele>188</ele>
        <time>2021-04-12T18:38:25+02:00</time>
      </trkpt>
      <trkpt lat="43.65863" lon="7.03538">
        <ele>189</ele>
        <time>2021-04-12T18:38:30+02:00</time>
      </trkpt>
      <trkpt lat="43.65844" lon="7.03548">
        <ele>190</ele>
        <time>2021-04-12T18:38:35+02:00</time>
      </trkpt>
      <trkpt lat="43.65816" lon="7.03558">
        <ele>190</ele>
        <time>2021-04-12T18:38:40+02:00</time>
      </trkpt>
      <trkpt lat="43.65781" lon="7.03573">
        <ele>188</ele>
        <time>2021-04-12T18:38:45+02:00</time>
      </trkpt>
      <trkpt lat="43.65754" lon="7.03582">
        <ele>187</ele>
        <time>2021-04-12T18:38:50+02:00</time>
      </trkpt>
      <trkpt lat="43.65734" lon="7.03587">
        <ele>186</ele>
        <time>2021-04-12T18:38:55+02:00</time>
      </trkpt>
      <trkpt lat="43.65717" lon="7.03597">
        <ele>185</ele>
        <time>2021-04-12T18:39:00+02:00</time>
      </trkpt>
      <trkpt lat="43.65709" lon="7.03603">
        <ele>185</ele>
        <time>2021-04-12T18:39:05+02:00</time>
      </trkpt>
      <trkpt lat="43.65702" lon="7.0362">
        <ele>184</ele>
        <time>2021-04-12T18:39:10+02:00</time>
      </trkpt>
      <trkpt lat="43.65695" lon="7.03647">
        <ele>184</ele>
        <time>2021-04-12T18:39:15+02:00</time>
      </trkpt>
      <trkpt lat="43.65688" lon="7.03659">
        <ele>184</ele>
        <time>2021-04-12T18:39:20+02:00</time>
      </trkpt>
      <trkpt lat="43.65669" lon="7.03684">
        <ele>184</ele>
        <time>2021-04-12T18:39:25+02:00</time>
      </trkpt>
      <trkpt lat="43.65664" lon="7.03694">
        <ele>184</ele>
        <time>2021-04-12T18:39:30+02:00</time>
      </trkpt>
      <trkpt lat="43.65651" lon="7.03709">
        <ele>184</ele>
        <time>2021-04-12T18:39:35+02:00</time>
      </trkpt>
      <trkpt lat="43.65642" lon="7.03714">
        <ele>184</ele>
        <time>2021-04-12T18:39:40+02:00</time>
      </trkpt>
      <trkpt lat="43.65632" lon="7.03715">
        <ele>183</ele>
        <time>2021-04-12T18:39:45+02:00</time>
      </trkpt>
      <trkpt lat="43.65626" lon="7.03718">
        <ele>183</ele>
        <time>2021-04-12T18:39:50+02:00</time>
      </trkpt>
      <trkpt lat="43.65617" lon="7.03736">
        <ele>183</ele>
        <time>2021-04-12T18:39:55+02:00</time>
      </trkpt>
      <trkpt lat="43.65606" lon="7.03755">
        <ele>182</ele>
        <time>2021-04-12T18:40:00+02:00</time>
      </trkpt>
      <trkpt lat="43.65595" lon="7.03779">
        <ele>181</ele>
        <time>2021-04-12T18:40:05+02:00</time>
      </trkpt>
      <trkpt lat="43.65583" lon="7.03782">
        <ele>181</ele>
        <time>2021-04-12T18:40:10+02:00</time>
      </trkpt>
      <trkpt lat="43.65567" lon="7.0379">
        <ele>180</ele>
        <time>2021-04-12T18:40:15+02:00</time>
      </trkpt>
      <trkpt lat="43.65553" lon="7.0381">
        <ele>179</ele>
        <time>2021-04-12T18:40:20+02:00</time>
      </trkpt>
      <trkpt lat="43.65545" lon="7.03816">
        <ele>178</ele>
        <time>2021-04-12T18:40:25+02:00</time>
      </trkpt>
      <trkpt lat="43.6553" lon="7.03817">
        <ele>175</ele>
        <time>2021-04-12T18:40:30+02:00</time>
      </trkpt>
      <trkpt lat="43.65511" lon="7.03821">
        <ele>172</ele>
        <time>2021-04-12T18:40:35+02:00</time>
      </trkpt>
      <trkpt lat="43.65477" lon="7.03817">
        <ele>165</ele>
        <time>2021-04-12T18:40:40+02:00</time>
      </trkpt>
      <trkpt lat="43.65462" lon="7.03809">
        <ele>162</ele>
        <time>2021-04-12T18:40:45+02:00</time>
      </trkpt>
      <trkpt lat="43.65441" lon="7.03791">
        <ele>160</ele>
        <time>2021-04-12T18:40:50+02:00</time>
      </trkpt>
      <trkpt lat="43.65434" lon="7.03784">
        <ele>160</ele>
        <time>2021-04-12T18:40:55+02:00</time>
      </trkpt>
      <trkpt lat="43.65425" lon="7.03764">
        <ele>160</ele>
        <time>2021-04-12T18:41:00+02:00</time>
      </trkpt>
      <trkpt lat="43.6542" lon="7.03749">
        <ele>160</ele>
        <time>2021-04-12T18:41:05+02:00</time>
      </trkpt>
      <trkpt lat="43.6541" lon="7.03725">
        <ele>161</ele>
        <time>2021-04-12T18:41:10+02:00</time>
      </trkpt>
      <trkpt lat="43.65381" lon="7.03626">
        <ele>168</ele>
        <time>2021-04-12T18:41:15+02:00</time>
      </trkpt>
      <trkpt lat="43.65374" lon="7.03593">
        <ele>170</ele>
        <time>2021-04-12T18:41:20+02:00</time>
      </trkpt>
      <trkpt lat="43.65368" lon="7.03532">
        <ele>173</ele>
        <time>2021-04-12T18:41:25+02:00</time>
      </trkpt>
      <trkpt lat="43.65363" lon="7.03516">
        <ele>174</ele>
        <time>2021-04-12T18:41:30+02:00</time>
      </trkpt>
      <trkpt lat="43.65361" lon="7.035">
        <ele>175</ele>
        <time>2021-04-12T18:41:35+02:00</time>
      </trkpt>
      <trkpt lat="43.65361" lon="7.03472">
        <ele>177</ele>
        <time>2021-04-12T18:41:40+02:00</time>
      </trkpt>
      <trkpt lat="43.65354" lon="7.03429">
        <ele>179</ele>
        <time>2021-04-12T18:41:45+02:00</time>
      </trkpt>
      <trkpt lat="43.65354" lon="7.03397">
        <ele>180</ele>
        <time>2021-04-12T18:41:50+02:00</time>
      </trkpt>
      <trkpt lat="43.65349" lon="7.03377">
        <ele>180</ele>
        <time>2021-04-12T18:41:55+02:00</time>
      </trkpt>
      <trkpt lat="43.65347" lon="7.03375">
        <ele>181</ele>
        <time>2021-04-12T18:42:00+02:00</time>
      </trkpt>
      <trkpt lat="43.65329" lon="7.0337">
        <ele>181</ele>
        <time>2021-04-12T18:42:05+02:00</time>
      </trkpt>
      <trkpt lat="43.65297" lon="7.03363">
        <ele>183</ele>
        <time>2021-04-12T18:42:10+02:00</time>
      </trkpt>
      <trkpt lat="43.65289" lon="7.03363">
        <ele>184</ele>
        <time>2021-04-12T18:42:15+02:00</time>
      </trkpt>
      <trkpt lat="43.65282" lon="7.03361">
        <ele>184</ele>
        <time>2021-04-12T18:42:20+02:00</time>
      </trkpt>
      <trkpt lat="43.65255" lon="7.03343">
        <ele>185</ele>
        <time>2021-04-12T18:42:25+02:00</time>
      </trkpt>
      <trkpt lat="43.65231" lon="7.0332">
        <ele>185</ele>
        <time>2021-04-12T18:42:30+02:00</time>
      </trkpt>
      <trkpt lat="43.65214" lon="7.03308">
        <ele>185</ele>
        <time>2021-04-12T18:42:35+02:00</time>
      </trkpt>
      <trkpt lat="43.65199" lon="7.03307">
        <ele>185</ele>
        <time>2021-04-12T18:42:40+02:00</time>
      </trkpt>
      <trkpt lat="43.65183" lon="7.03316">
        <ele>185</ele>
        <time>2021-04-12T18:42:45+02:00</time>
      </trkpt>
      <trkpt lat="43.6518" lon="7.03318">
        <ele>185</ele>
        <time>2021-04-12T18:42:50+02:00</time>
      </trkpt>
      <trkpt lat="43.6516" lon="7.03319">
        <ele>184</ele>
        <time>2021-04-12T18:42:55+02:00</time>
      </trkpt>
      <trkpt lat="43.65155" lon="7.03317">
        <ele>184</ele>
        <time>2021-04-12T18:43:00+02:00</time>
      </trkpt>
      <trkpt lat="43.65127" lon="7.03297">
        <ele>180</ele>
        <time>2021-04-12T18:43:05+02:00</time>
      </trkpt>
      <trkpt lat="43.65119" lon="7.03302">
        <ele>179</ele>
        <time>2021-04-12T18:43:10+02:00</time>
      </trkpt>
      <trkpt lat="43.65111" lon="7.03313">
        <ele>176</ele>
        <time>2021-04-12T18:43:15+02:00</time>
      </trkpt>
      <trkpt lat="43.6511" lon="7.03321">
        <ele>176</ele>
        <time>2021-04-12T18:43:20+02:00</time>
      </trkpt>
      <trkpt lat="43.6511" lon="7.03332">
        <ele>175</ele>
        <time>2021-04-12T18:43:25+02:00</time>
      </trkpt>
      <trkpt lat="43.65116" lon="7.03361">
        <ele>175</ele>
        <time>2021-04-12T18:43:30+02:00</time>
      </trkpt>
      <trkpt lat="43.65115" lon="7.03382">
        <ele>174</ele>
        <time>2021-04-12T18:43:35+02:00</time>
      </trkpt>
      <trkpt lat="43.65107" lon="7.03403">
        <ele>172</ele>
        <time>2021-04-12T18:43:40+02:00</time>
      </trkpt>
      <trkpt lat="43.65097" lon="7.03418">
        <ele>171</ele>
        <time>2021-04-12T18:43:45+02:00</time>
      </trkpt>
      <trkpt lat="43.65094" lon="7.03422">
        <ele>171</ele>
        <time>2021-04-12T18:43:50+02:00</time>
      </trkpt>
      <trkpt lat="43.65092" lon="7.03424">
        <ele>171</ele>
        <time>2021-04-12T18:43:55+02:00</time>
      </trkpt>
      <trkpt lat="43.65077" lon="7.03437">
        <ele>171</ele>
        <time>2021-04-12T18:44:00+02:00</time>
      </trkpt>
      <trkpt lat="43.6508" lon="7.03459">
        <ele>171</ele>
        <time>2021-04-12T18:44:05+02:00</time>
      </trkpt>
      <trkpt lat="43.65079" lon="7.03479">
        <ele>171</ele>
        <time>2021-04-12T18:44:10+02:00</time>
      </trkpt>
      <trkpt lat="43.65077" lon="7.035">
        <ele>171</ele>
        <time>2021-04-12T18:44:15+02:00</time>
      </trkpt>
      <trkpt lat="43.65071" lon="7.03538">
        <ele>170</ele>
        <time>2021-04-12T18:44:20+02:00</time>
      </trkpt>
      <trkpt lat="43.65071" lon="7.03566">
        <ele>170</ele>
        <time>2021-04-12T18:44:25+02:00</time>
      </trkpt>
      <trkpt lat="43.65074" lon="7.03616">
        <ele>172</ele>
        <time>2021-04-12T18:44:30+02:00</time>
      </trkpt>
      <trkpt lat="43.65078" lon="7.03636">
        <ele>173</ele>
        <time>2021-04-12T18:44:35+02:00</time>
      </trkpt>
      <trkpt lat="43.65089" lon="7.03656">
        <ele>173</ele>
        <time>2021-04-12T18:44:40+02:00</time>
      </trkpt>
      <trkpt lat="43.65094" lon="7.03674">
        <ele>173</ele>
        <time>2021-04-12T18:44:45+02:00</time>
      </trkpt>
      <trkpt lat="43.65093" lon="7.03689">
        <ele>174</ele>
        <time>2021-04-12T18:44:50+02:00</time>
      </trkpt>
      <trkpt lat="43.65094" lon="7.03674">
        <ele>173</ele>
        <time>2021-04-12T18:44:55+02:00</time>
      </trkpt>
      <trkpt lat="43.65073" lon="7.03677">
        <ele>177</ele>
        <time>2021-04-12T18:45:00+02:00</time>
      </trkpt>
      <trkpt lat="43.6505" lon="7.03676">
        <ele>182</ele>
        <time>2021-04-12T18:45:05+02:00</time>
      </trkpt>
      <trkpt lat="43.65029" lon="7.03668">
        <ele>187</ele>
        <time>2021-04-12T18:45:10+02:00</time>
      </trkpt>
      <trkpt lat="43.64983" lon="7.03665">
        <ele>194</ele>
        <time>2021-04-12T18:45:15+02:00</time>
      </trkpt>
      <trkpt lat="43.64946" lon="7.03658">
        <ele>199</ele>
        <time>2021-04-12T18:45:20+02:00</time>
      </trkpt>
      <trkpt lat="43.64934" lon="7.03656">
        <ele>201</ele>
        <time>2021-04-12T18:45:25+02:00</time>
      </trkpt>
      <trkpt lat="43.64926" lon="7.03652">
        <ele>201</ele>
        <time>2021-04-12T18:45:30+02:00</time>
      </trkpt>
      <trkpt lat="43.64879" lon="7.03632">
        <ele>206</ele>
        <time>2021-04-12T18:45:35+02:00</time>
      </trkpt>
      <trkpt lat="43.64837" lon="7.03617">
        <ele>210</ele>
        <time>2021-04-12T18:45:40+02:00</time>
      </trkpt>
      <trkpt lat="43.64827" lon="7.03612">
        <ele>210</ele>
        <time>2021-04-12T18:45:45+02:00</time>
      </trkpt>
      <trkpt lat="43.6481" lon="7.03604">
        <ele>210</ele>
        <time>2021-04-12T18:45:50+02:00</time>
      </trkpt>
      <trkpt lat="43.64715" lon="7.03549">
        <ele>205</ele>
        <time>2021-04-12T18:45:55+02:00</time>
      </trkpt>
      <trkpt lat="43.64678" lon="7.03525">
        <ele>201</ele>
        <time>2021-04-12T18:46:00+02:00</time>
      </trkpt>
      <trkpt lat="43.64653" lon="7.03509">
        <ele>199</ele>
        <time>2021-04-12T18:46:05+02:00</time>
      </trkpt>
      <trkpt lat="43.64611" lon="7.03479">
        <ele>197</ele>
        <time>2021-04-12T18:46:10+02:00</time>
      </trkpt>
      <trkpt lat="43.64588" lon="7.03458">
        <ele>198</ele>
        <time>2021-04-12T18:46:15+02:00</time>
      </trkpt>
      <trkpt lat="43.6454" lon="7.03419">
        <ele>199</ele>
        <time>2021-04-12T18:46:20+02:00</time>
      </trkpt>
      <trkpt lat="43.6449" lon="7.03373">
        <ele>200</ele>
        <time>2021-04-12T18:46:25+02:00</time>
      </trkpt>
      <trkpt lat="43.64481" lon="7.03365">
        <ele>200</ele>
        <time>2021-04-12T18:46:30+02:00</time>
      </trkpt>
      <trkpt lat="43.64454" lon="7.03346">
        <ele>200</ele>
        <time>2021-04-12T18:46:35+02:00</time>
      </trkpt>
      <trkpt lat="43.6441" lon="7.033">
        <ele>197</ele>
        <time>2021-04-12T18:46:40+02:00</time>
      </trkpt>
      <trkpt lat="43.6441" lon="7.03294">
        <ele>197</ele>
        <time>2021-04-12T18:46:45+02:00</time>
      </trkpt>
      <trkpt lat="43.64412" lon="7.03285">
        <ele>197</ele>
        <time>2021-04-12T18:46:50+02:00</time>
      </trkpt>
      <trkpt lat="43.64417" lon="7.03277">
        <ele>197</ele>
        <time>2021-04-12T18:46:55+02:00</time>
      </trkpt>
      <trkpt lat="43.6443" lon="7.03239">
        <ele>196</ele>
        <time>2021-04-12T18:47:00+02:00</time>
      </trkpt>
      <trkpt lat="43.6444" lon="7.03204">
        <ele>195</ele>
        <time>2021-04-12T18:47:05+02:00</time>
      </trkpt>
      <trkpt lat="43.64485" lon="7.03064">
        <ele>192</ele>
        <time>2021-04-12T18:47:10+02:00</time>
      </trkpt>
      <trkpt lat="43.64495" lon="7.03033">
        <ele>191</ele>
        <time>2021-04-12T18:47:15+02:00</time>
      </trkpt>
      <trkpt lat="43.64497" lon="7.03014">
        <ele>191</ele>
        <time>2021-04-12T18:47:20+02:00</time>
      </trkpt>
      <trkpt lat="43.64495" lon="7.03011">
        <ele>191</ele>
        <time>2021-04-12T18:47:25+02:00</time>
      </trkpt>
      <trkpt lat="43.64471" lon="7.03004">
        <ele>193</ele>
        <time>2021-04-12T18:47:30+02:00</time>
      </trkpt>
      <trkpt lat="43.64447" lon="7.02997">
        <ele>190</ele>
        <time>2021-04-12T18:47:35+02:00</time>
      </trkpt>
      <trkpt lat="43.64437" lon="7.02988">
        <ele>190</ele>
        <time>2021-04-12T18:47:40+02:00</time>
      </trkpt>
      <trkpt lat="43.64435" lon="7.02986">
        <ele>190</ele>
        <time>2021-04-12T18:47:45+02:00</time>
      </trkpt>
      <trkpt lat="43.64428" lon="7.02975">
        <ele>190</ele>
        <time>2021-04-12T18:47:50+02:00</time>
      </trkpt>
      <trkpt lat="43.64408" lon="7.02933">
        <ele>192</ele>
        <time>2021-04-12T18:47:55+02:00</time>
      </trkpt>
      <trkpt lat="43.64403" lon="7.02924">
        <ele>192</ele>
        <time>2021-04-12T18:48:00+02:00</time>
      </trkpt>
      <trkpt lat="43.64385" lon="7.02873">
        <ele>193</ele>
        <time>2021-04-12T18:48:05+02:00</time>
      </trkpt>
      <trkpt lat="43.64383" lon="7.0286">
        <ele>194</ele>
        <time>2021-04-12T18:48:10+02:00</time>
      </trkpt>
      <trkpt lat="43.6438" lon="7.02844">
        <ele>194</ele>
        <time>2021-04-12T18:48:15+02:00</time>
      </trkpt>
      <trkpt lat="43.64379" lon="7.0283">
        <ele>195</ele>
        <time>2021-04-12T18:48:20+02:00</time>
      </trkpt>
      <trkpt lat="43.64376" lon="7.02795">
        <ele>196</ele>
        <time>2021-04-12T18:48:25+02:00</time>
      </trkpt>
      <trkpt lat="43.64375" lon="7.02754">
        <ele>197</ele>
        <time>2021-04-12T18:48:30+02:00</time>
      </trkpt>
      <trkpt lat="43.64372" lon="7.02712">
        <ele>198</ele>
        <time>2021-04-12T18:48:35+02:00</time>
      </trkpt>
      <trkpt lat="43.64368" lon="7.02653">
        <ele>197</ele>
        <time>2021-04-12T18:48:40+02:00</time>
      </trkpt>
      <trkpt lat="43.64361" lon="7.02553">
        <ele>197</ele>
        <time>2021-04-12T18:48:45+02:00</time>
      </trkpt>
      <trkpt lat="43.64362" lon="7.02522">
        <ele>198</ele>
        <time>2021-04-12T18:48:50+02:00</time>
      </trkpt>
      <trkpt lat="43.64365" lon="7.02481">
        <ele>198</ele>
        <time>2021-04-12T18:48:55+02:00</time>
      </trkpt>
      <trkpt lat="43.64296" lon="7.02459">
        <ele>197</ele>
        <time>2021-04-12T18:49:00+02:00</time>
      </trkpt>
      <trkpt lat="43.64297" lon="7.02453">
        <ele>197</ele>
        <time>2021-04-12T18:49:05+02:00</time>
      </trkpt>
      <trkpt lat="43.64297" lon="7.02451">
        <ele>197</ele>
        <time>2021-04-12T18:49:10+02:00</time>
      </trkpt>
      <trkpt lat="43.64297" lon="7.02453">
        <ele>197</ele>
        <time>2021-04-12T18:49:15+02:00</time>
      </trkpt>
      <trkpt lat="43.64296" lon="7.02459">
        <ele>197</ele>
        <time>2021-04-12T18:49:20+02:00</time>
      </trkpt>
      <trkpt lat="43.64283" lon="7.02495">
        <ele>196</ele>
        <time>2021-04-12T18:49:25+02:00</time>
      </trkpt>
      <trkpt lat="43.64276" lon="7.02516">
        <ele>196</ele>
        <time>2021-04-12T18:49:30+02:00</time>
      </trkpt>
      <trkpt lat="43.64263" lon="7.02543">
        <ele>196</ele>
        <time>2021-04-12T18:49:35+02:00</time>
      </trkpt>
      <trkpt lat="43.64248" lon="7.02534">
        <ele>197</ele>
        <time>2021-04-12T18:49:40+02:00</time>
      </trkpt>
      <trkpt lat="43.64219" lon="7.02523">
        <ele>199</ele>
        <time>2021-04-12T18:49:45+02:00</time>
      </trkpt>
      <trkpt lat="43.64194" lon="7.02511">
        <ele>202</ele>
        <time>2021-04-12T18:49:50+02:00</time>
      </trkpt>
      <trkpt lat="43.64183" lon="7.02512">
        <ele>201</ele>
        <time>2021-04-12T18:49:55+02:00</time>
      </trkpt>
      <trkpt lat="43.64157" lon="7.02576">
        <ele>195</ele>
        <time>2021-04-12T18:50:00+02:00</time>
      </trkpt>
      <trkpt lat="43.64151" lon="7.02572">
        <ele>195</ele>
        <time>2021-04-12T18:50:05+02:00</time>
      </trkpt>
      <trkpt lat="43.64124" lon="7.02572">
        <ele>191</ele>
        <time>2021-04-12T18:50:10+02:00</time>
      </trkpt>
      <trkpt lat="43.64079" lon="7.02576">
        <ele>185</ele>
        <time>2021-04-12T18:50:15+02:00</time>
      </trkpt>
      <trkpt lat="43.64025" lon="7.02582">
        <ele>178</ele>
        <time>2021-04-12T18:50:20+02:00</time>
      </trkpt>
      <trkpt lat="43.6401" lon="7.02586">
        <ele>176</ele>
        <time>2021-04-12T18:50:25+02:00</time>
      </trkpt>
      <trkpt lat="43.63979" lon="7.02603">
        <ele>172</ele>
        <time>2021-04-12T18:50:30+02:00</time>
      </trkpt>
      <trkpt lat="43.6396" lon="7.02615">
        <ele>168</ele>
        <time>2021-04-12T18:50:35+02:00</time>
      </trkpt>
      <trkpt lat="43.63933" lon="7.02637">
        <ele>164</ele>
        <time>2021-04-12T18:50:40+02:00</time>
      </trkpt>
      <trkpt lat="43.63886" lon="7.02685">
        <ele>157</ele>
        <time>2021-04-12T18:50:45+02:00</time>
      </trkpt>
      <trkpt lat="43.63881" lon="7.0269">
        <ele>156</ele>
        <time>2021-04-12T18:50:50+02:00</time>
      </trkpt>
      <trkpt lat="43.63874" lon="7.02708">
        <ele>155</ele>
        <time>2021-04-12T18:50:55+02:00</time>
      </trkpt>
      <trkpt lat="43.63872" lon="7.0272">
        <ele>154</ele>
        <time>2021-04-12T18:51:00+02:00</time>
      </trkpt>
      <trkpt lat="43.6387" lon="7.02726">
        <ele>154</ele>
        <time>2021-04-12T18:51:05+02:00</time>
      </trkpt>
      <trkpt lat="43.63866" lon="7.02723">
        <ele>153</ele>
        <time>2021-04-12T18:51:10+02:00</time>
      </trkpt>
      <trkpt lat="43.63865" lon="7.02711">
        <ele>152</ele>
        <time>2021-04-12T18:51:15+02:00</time>
      </trkpt>
      <trkpt lat="43.6387" lon="7.02679">
        <ele>153</ele>
        <time>2021-04-12T18:51:20+02:00</time>
      </trkpt>
      <trkpt lat="43.63867" lon="7.02673">
        <ele>152</ele>
        <time>2021-04-12T18:51:25+02:00</time>
      </trkpt>
      <trkpt lat="43.63864" lon="7.02669">
        <ele>151</ele>
        <time>2021-04-12T18:51:30+02:00</time>
      </trkpt>
      <trkpt lat="43.63862" lon="7.02665">
        <ele>150</ele>
        <time>2021-04-12T18:51:35+02:00</time>
      </trkpt>
      <trkpt lat="43.63858" lon="7.02659">
        <ele>151</ele>
        <time>2021-04-12T18:51:40+02:00</time>
      </trkpt>
      <trkpt lat="43.63854" lon="7.02656">
        <ele>152</ele>
        <time>2021-04-12T18:51:45+02:00</time>
      </trkpt>
      <trkpt lat="43.63852" lon="7.02655">
        <ele>152</ele>
        <time>2021-04-12T18:51:50+02:00</time>
      </trkpt>
      <trkpt lat="43.6385" lon="7.02654">
        <ele>153</ele>
        <time>2021-04-12T18:51:55+02:00</time>
      </trkpt>
      <trkpt lat="43.63843" lon="7.02654">
        <ele>154</ele>
        <time>2021-04-12T18:52:00+02:00</time>
      </trkpt>
      <trkpt lat="43.6383" lon="7.02664">
        <ele>156</ele>
        <time>2021-04-12T18:52:05+02:00</time>
      </trkpt>
      <trkpt lat="43.63827" lon="7.02668">
        <ele>156</ele>
        <time>2021-04-12T18:52:10+02:00</time>
      </trkpt>
      <trkpt lat="43.63819" lon="7.02695">
        <ele>155</ele>
        <time>2021-04-12T18:52:15+02:00</time>
      </trkpt>
      <trkpt lat="43.63813" lon="7.02719">
        <ele>153</ele>
        <time>2021-04-12T18:52:20+02:00</time>
      </trkpt>
      <trkpt lat="43.63812" lon="7.0272">
        <ele>153</ele>
        <time>2021-04-12T18:52:25+02:00</time>
      </trkpt>
      <trkpt lat="43.63809" lon="7.02722">
        <ele>154</ele>
        <time>2021-04-12T18:52:30+02:00</time>
      </trkpt>
      <trkpt lat="43.63803" lon="7.02722">
        <ele>154</ele>
        <time>2021-04-12T18:52:35+02:00</time>
      </trkpt>
      <trkpt lat="43.63798" lon="7.02721">
        <ele>155</ele>
        <time>2021-04-12T18:52:40+02:00</time>
      </trkpt>
      <trkpt lat="43.63793" lon="7.02714">
        <ele>156</ele>
        <time>2021-04-12T18:52:45+02:00</time>
      </trkpt>
      <trkpt lat="43.63791" lon="7.02708">
        <ele>157</ele>
        <time>2021-04-12T18:52:50+02:00</time>
      </trkpt>
      <trkpt lat="43.63793" lon="7.02695">
        <ele>158</ele>
        <time>2021-04-12T18:52:55+02:00</time>
      </trkpt>
      <trkpt lat="43.63797" lon="7.0269">
        <ele>159</ele>
        <time>2021-04-12T18:53:00+02:00</time>
      </trkpt>
      <trkpt lat="43.63819" lon="7.02637">
        <ele>162</ele>
        <time>2021-04-12T18:53:05+02:00</time>
      </trkpt>
      <trkpt lat="43.63819" lon="7.02632">
        <ele>162</ele>
        <time>2021-04-12T18:53:10+02:00</time>
      </trkpt>
      <trkpt lat="43.63818" lon="7.02628">
        <ele>163</ele>
        <time>2021-04-12T18:53:15+02:00</time>
      </trkpt>
      <trkpt lat="43.63813" lon="7.02626">
        <ele>165</ele>
        <time>2021-04-12T18:53:20+02:00</time>
      </trkpt>
      <trkpt lat="43.63793" lon="7.02639">
        <ele>167</ele>
        <time>2021-04-12T18:53:25+02:00</time>
      </trkpt>
      <trkpt lat="43.63769" lon="7.02648">
        <ele>170</ele>
        <time>2021-04-12T18:53:30+02:00</time>
      </trkpt>
      <trkpt lat="43.63754" lon="7.02654">
        <ele>172</ele>
        <time>2021-04-12T18:53:35+02:00</time>
      </trkpt>
      <trkpt lat="43.63727" lon="7.0266">
        <ele>176</ele>
        <time>2021-04-12T18:53:40+02:00</time>
      </trkpt>
      <trkpt lat="43.63693" lon="7.0268">
        <ele>177</ele>
        <time>2021-04-12T18:53:45+02:00</time>
      </trkpt>
      <trkpt lat="43.63671" lon="7.02696">
        <ele>179</ele>
        <time>2021-04-12T18:53:50+02:00</time>
      </trkpt>
      <trkpt lat="43.63662" lon="7.027">
        <ele>179</ele>
        <time>2021-04-12T18:53:55+02:00</time>
      </trkpt>
      <trkpt lat="43.63658" lon="7.02701">
        <ele>179</ele>
        <time>2021-04-12T18:54:00+02:00</time>
      </trkpt>
      <trkpt lat="43.63653" lon="7.027">
        <ele>179</ele>
        <time>2021-04-12T18:54:05+02:00</time>
      </trkpt>
      <trkpt lat="43.6365" lon="7.02697">
        <ele>180</ele>
        <time>2021-04-12T18:54:10+02:00</time>
      </trkpt>
      <trkpt lat="43.63637" lon="7.02667">
        <ele>184</ele>
        <time>2021-04-12T18:54:15+02:00</time>
      </trkpt>
      <trkpt lat="43.63628" lon="7.02639">
        <ele>185</ele>
        <time>2021-04-12T18:54:20+02:00</time>
      </trkpt>
      <trkpt lat="43.63625" lon="7.02632">
        <ele>186</ele>
        <time>2021-04-12T18:54:25+02:00</time>
      </trkpt>
      <trkpt lat="43.63628" lon="7.02639">
        <ele>185</ele>
        <time>2021-04-12T18:54:30+02:00</time>
      </trkpt>
      <trkpt lat="43.6362" lon="7.02648">
        <ele>184</ele>
        <time>2021-04-12T18:54:35+02:00</time>
      </trkpt>
      <trkpt lat="43.6361" lon="7.02663">
        <ele>182</ele>
        <time>2021-04-12T18:54:40+02:00</time>
      </trkpt>
      <trkpt lat="43.63604" lon="7.02675">
        <ele>183</ele>
        <time>2021-04-12T18:54:45+02:00</time>
      </trkpt>
      <trkpt lat="43.63593" lon="7.02691">
        <ele>184</ele>
        <time>2021-04-12T18:54:50+02:00</time>
      </trkpt>
      <trkpt lat="43.63591" lon="7.02694">
        <ele>185</ele>
        <time>2021-04-12T18:54:55+02:00</time>
      </trkpt>
      <trkpt lat="43.63575" lon="7.02727">
        <ele>187</ele>
        <time>2021-04-12T18:55:00+02:00</time>
      </trkpt>
      <trkpt lat="43.63559" lon="7.02748">
        <ele>188</ele>
        <time>2021-04-12T18:55:05+02:00</time>
      </trkpt>
      <trkpt lat="43.63544" lon="7.02761">
        <ele>188</ele>
        <time>2021-04-12T18:55:10+02:00</time>
      </trkpt>
      <trkpt lat="43.63506" lon="7.02789">
        <ele>191</ele>
        <time>2021-04-12T18:55:15+02:00</time>
      </trkpt>
      <trkpt lat="43.63494" lon="7.028">
        <ele>192</ele>
        <time>2021-04-12T18:55:20+02:00</time>
      </trkpt>
      <trkpt lat="43.63497" lon="7.02831">
        <ele>192</ele>
        <time>2021-04-12T18:55:25+02:00</time>
      </trkpt>
      <trkpt lat="43.63516" lon="7.0288">
        <ele>193</ele>
        <time>2021-04-12T18:55:30+02:00</time>
      </trkpt>
      <trkpt lat="43.63519" lon="7.02889">
        <ele>193</ele>
        <time>2021-04-12T18:55:35+02:00</time>
      </trkpt>
      <trkpt lat="43.63521" lon="7.02902">
        <ele>194</ele>
        <time>2021-04-12T18:55:40+02:00</time>
      </trkpt>
      <trkpt lat="43.63521" lon="7.02936">
        <ele>194</ele>
        <time>2021-04-12T18:55:45+02:00</time>
      </trkpt>
      <trkpt lat="43.63516" lon="7.03017">
        <ele>196</ele>
        <time>2021-04-12T18:55:50+02:00</time>
      </trkpt>
      <trkpt lat="43.63519" lon="7.03058">
        <ele>196</ele>
        <time>2021-04-12T18:55:55+02:00</time>
      </trkpt>
      <trkpt lat="43.63519" lon="7.03097">
        <ele>196</ele>
        <time>2021-04-12T18:56:00+02:00</time>
      </trkpt>
      <trkpt lat="43.63518" lon="7.03118">
        <ele>196</ele>
        <time>2021-04-12T18:56:05+02:00</time>
      </trkpt>
      <trkpt lat="43.63515" lon="7.03154">
        <ele>197</ele>
        <time>2021-04-12T18:56:10+02:00</time>
      </trkpt>
      <trkpt lat="43.63514" lon="7.03162">
        <ele>197</ele>
        <time>2021-04-12T18:56:15+02:00</time>
      </trkpt>
      <trkpt lat="43.63509" lon="7.03193">
        <ele>198</ele>
        <time>2021-04-12T18:56:20+02:00</time>
      </trkpt>
      <trkpt lat="43.63503" lon="7.0322">
        <ele>199</ele>
        <time>2021-04-12T18:56:25+02:00</time>
      </trkpt>
      <trkpt lat="43.63493" lon="7.03248">
        <ele>200</ele>
        <time>2021-04-12T18:56:30+02:00</time>
      </trkpt>
      <trkpt lat="43.63477" lon="7.03273">
        <ele>201</ele>
        <time>2021-04-12T18:56:35+02:00</time>
      </trkpt>
      <trkpt lat="43.63435" lon="7.03309">
        <ele>201</ele>
        <time>2021-04-12T18:56:40+02:00</time>
      </trkpt>
      <trkpt lat="43.63377" lon="7.03355">
        <ele>203</ele>
        <time>2021-04-12T18:56:45+02:00</time>
      </trkpt>
      <trkpt lat="43.63367" lon="7.0336">
        <ele>203</ele>
        <time>2021-04-12T18:56:50+02:00</time>
      </trkpt>
      <trkpt lat="43.63316" lon="7.03373">
        <ele>202</ele>
        <time>2021-04-12T18:56:55+02:00</time>
      </trkpt>
      <trkpt lat="43.63247" lon="7.03398">
        <ele>202</ele>
        <time>2021-04-12T18:57:00+02:00</time>
      </trkpt>
      <trkpt lat="43.63227" lon="7.03397">
        <ele>201</ele>
        <time>2021-04-12T18:57:05+02:00</time>
      </trkpt>
      <trkpt lat="43.6322" lon="7.03394">
        <ele>201</ele>
        <time>2021-04-12T18:57:10+02:00</time>
      </trkpt>
      <trkpt lat="43.63209" lon="7.03386">
        <ele>200</ele>
        <time>2021-04-12T18:57:15+02:00</time>
      </trkpt>
      <trkpt lat="43.63194" lon="7.03367">
        <ele>199</ele>
        <time>2021-04-12T18:57:20+02:00</time>
      </trkpt>
      <trkpt lat="43.63191" lon="7.03358">
        <ele>199</ele>
        <time>2021-04-12T18:57:25+02:00</time>
      </trkpt>
      <trkpt lat="43.63185" lon="7.03344">
        <ele>199</ele>
        <time>2021-04-12T18:57:30+02:00</time>
      </trkpt>
      <trkpt lat="43.63182" lon="7.03335">
        <ele>198</ele>
        <time>2021-04-12T18:57:35+02:00</time>
      </trkpt>
      <trkpt lat="43.63171" lon="7.03286">
        <ele>198</ele>
        <time>2021-04-12T18:57:40+02:00</time>
      </trkpt>
      <trkpt lat="43.63168" lon="7.03271">
        <ele>198</ele>
        <time>2021-04-12T18:57:45+02:00</time>
      </trkpt>
      <trkpt lat="43.63164" lon="7.03287">
        <ele>195</ele>
        <time>2021-04-12T18:57:50+02:00</time>
      </trkpt>
      <trkpt lat="43.63161" lon="7.033">
        <ele>193</ele>
        <time>2021-04-12T18:57:55+02:00</time>
      </trkpt>
      <trkpt lat="43.63161" lon="7.03324">
        <ele>193</ele>
        <time>2021-04-12T18:58:00+02:00</time>
      </trkpt>
      <trkpt lat="43.63163" lon="7.03342">
        <ele>192</ele>
        <time>2021-04-12T18:58:05+02:00</time>
      </trkpt>
      <trkpt lat="43.63166" lon="7.03365">
        <ele>192</ele>
        <time>2021-04-12T18:58:10+02:00</time>
      </trkpt>
      <trkpt lat="43.63166" lon="7.0337">
        <ele>192</ele>
        <time>2021-04-12T18:58:15+02:00</time>
      </trkpt>
      <trkpt lat="43.63162" lon="7.03374">
        <ele>190</ele>
        <time>2021-04-12T18:58:20+02:00</time>
      </trkpt>
      <trkpt lat="43.63152" lon="7.03364">
        <ele>187</ele>
        <time>2021-04-12T18:58:25+02:00</time>
      </trkpt>
      <trkpt lat="43.63149" lon="7.03361">
        <ele>186</ele>
        <time>2021-04-12T18:58:30+02:00</time>
      </trkpt>
      <trkpt lat="43.63146" lon="7.03373">
        <ele>184</ele>
        <time>2021-04-12T18:58:35+02:00</time>
      </trkpt>
      <trkpt lat="43.6315" lon="7.03383">
        <ele>184</ele>
        <time>2021-04-12T18:58:40+02:00</time>
      </trkpt>
      <trkpt lat="43.63154" lon="7.03389">
        <ele>185</ele>
        <time>2021-04-12T18:58:45+02:00</time>
      </trkpt>
      <trkpt lat="43.63168" lon="7.034">
        <ele>189</ele>
        <time>2021-04-12T18:58:50+02:00</time>
      </trkpt>
      <trkpt lat="43.63166" lon="7.03422">
        <ele>186</ele>
        <time>2021-04-12T18:58:55+02:00</time>
      </trkpt>
      <trkpt lat="43.63167" lon="7.03442">
        <ele>183</ele>
        <time>2021-04-12T18:59:00+02:00</time>
      </trkpt>
      <trkpt lat="43.63174" lon="7.03456">
        <ele>182</ele>
        <time>2021-04-12T18:59:05+02:00</time>
      </trkpt>
      <trkpt lat="43.63185" lon="7.03469">
        <ele>182</ele>
        <time>2021-04-12T18:59:10+02:00</time>
      </trkpt>
      <trkpt lat="43.6321" lon="7.03497">
        <ele>179</ele>
        <time>2021-04-12T18:59:15+02:00</time>
      </trkpt>
      <trkpt lat="43.63218" lon="7.03511">
        <ele>176</ele>
        <time>2021-04-12T18:59:20+02:00</time>
      </trkpt>
      <trkpt lat="43.63222" lon="7.0352">
        <ele>175</ele>
        <time>2021-04-12T18:59:25+02:00</time>
      </trkpt>
      <trkpt lat="43.63217" lon="7.03543">
        <ele>170</ele>
        <time>2021-04-12T18:59:30+02:00</time>
      </trkpt>
      <trkpt lat="43.63225" lon="7.03584">
        <ele>164</ele>
        <time>2021-04-12T18:59:35+02:00</time>
      </trkpt>
      <trkpt lat="43.63237" lon="7.03619">
        <ele>161</ele>
        <time>2021-04-12T18:59:40+02:00</time>
      </trkpt>
      <trkpt lat="43.63243" lon="7.03641">
        <ele>158</ele>
        <time>2021-04-12T18:59:45+02:00</time>
      </trkpt>
      <trkpt lat="43.63246" lon="7.03651">
        <ele>157</ele>
        <time>2021-04-12T18:59:50+02:00</time>
      </trkpt>
      <trkpt lat="43.63248" lon="7.03665">
        <ele>155</ele>
        <time>2021-04-12T18:59:55+02:00</time>
      </trkpt>
      <trkpt lat="43.63251" lon="7.03682">
        <ele>154</ele>
        <time>2021-04-12T19:00:00+02:00</time>
      </trkpt>
      <trkpt lat="43.63257" lon="7.03698">
        <ele>153</ele>
        <time>2021-04-12T19:00:05+02:00</time>
      </trkpt>
      <trkpt lat="43.63261" lon="7.03707">
        <ele>153</ele>
        <time>2021-04-12T19:00:10+02:00</time>
      </trkpt>
      <trkpt lat="43.63266" lon="7.03722">
        <ele>152</ele>
        <time>2021-04-12T19:00:15+02:00</time>
      </trkpt>
      <trkpt lat="43.63266" lon="7.03724">
        <ele>152</ele>
        <time>2021-04-12T19:00:20+02:00</time>
      </trkpt>
      <trkpt lat="43.63262" lon="7.03734">
        <ele>151</ele>
        <time>2021-04-12T19:00:25+02:00</time>
      </trkpt>
      <trkpt lat="43.63254" lon="7.03745">
        <ele>149</ele>
        <time>2021-04-12T19:00:30+02:00</time>
      </trkpt>
      <trkpt lat="43.63248" lon="7.03749">
        <ele>148</ele>
        <time>2021-04-12T19:00:35+02:00</time>
      </trkpt>
      <trkpt lat="43.63242" lon="7.03756">
        <ele>144</ele>
        <time>2021-04-12T19:00:40+02:00</time>
      </trkpt>
      <trkpt lat="43.6324" lon="7.03761">
        <ele>143</ele>
        <time>2021-04-12T19:00:45+02:00</time>
      </trkpt>
      <trkpt lat="43.63244" lon="7.0377">
        <ele>142</ele>
        <time>2021-04-12T19:00:50+02:00</time>
      </trkpt>
      <trkpt lat="43.63249" lon="7.03782">
        <ele>141</ele>
        <time>2021-04-12T19:00:55+02:00</time>
      </trkpt>
      <trkpt lat="43.63252" lon="7.03803">
        <ele>135</ele>
        <time>2021-04-12T19:01:00+02:00</time>
      </trkpt>
      <trkpt lat="43.63252" lon="7.03812">
        <ele>132</ele>
        <time>2021-04-12T19:01:05+02:00</time>
      </trkpt>
      <trkpt lat="43.63258" lon="7.03816">
        <ele>130</ele>
        <time>2021-04-12T19:01:10+02:00</time>
      </trkpt>
      <trkpt lat="43.63266" lon="7.03819">
        <ele>129</ele>
        <time>2021-04-12T19:01:15+02:00</time>
      </trkpt>
      <trkpt lat="43.63274" lon="7.03822">
        <ele>127</ele>
        <time>2021-04-12T19:01:20+02:00</time>
      </trkpt>
      <trkpt lat="43.63271" lon="7.03829">
        <ele>125</ele>
        <time>2021-04-12T19:01:25+02:00</time>
      </trkpt>
      <trkpt lat="43.63262" lon="7.0384">
        <ele>123</ele>
        <time>2021-04-12T19:01:30+02:00</time>
      </trkpt>
      <trkpt lat="43.63246" lon="7.03857">
        <ele>121</ele>
        <time>2021-04-12T19:01:35+02:00</time>
      </trkpt>
      <trkpt lat="43.63239" lon="7.03873">
        <ele>120</ele>
        <time>2021-04-12T19:01:40+02:00</time>
      </trkpt>
      <trkpt lat="43.63234" lon="7.03889">
        <ele>120</ele>
        <time>2021-04-12T19:01:45+02:00</time>
      </trkpt>
      <trkpt lat="43.63219" lon="7.03928">
        <ele>125</ele>
        <time>2021-04-12T19:01:50+02:00</time>
      </trkpt>
      <trkpt lat="43.63218" lon="7.03966">
        <ele>122</ele>
        <time>2021-04-12T19:01:55+02:00</time>
      </trkpt>
      <trkpt lat="43.63228" lon="7.03998">
        <ele>118</ele>
        <time>2021-04-12T19:02:00+02:00</time>
      </trkpt>
      <trkpt lat="43.63234" lon="7.04046">
        <ele>120</ele>
        <time>2021-04-12T19:02:05+02:00</time>
      </trkpt>
      <trkpt lat="43.63254" lon="7.04083">
        <ele>119</ele>
        <time>2021-04-12T19:02:10+02:00</time>
      </trkpt>
      <trkpt lat="43.63295" lon="7.04126">
        <ele>112</ele>
        <time>2021-04-12T19:02:15+02:00</time>
      </trkpt>
      <trkpt lat="43.63284" lon="7.04174">
        <ele>114</ele>
        <time>2021-04-12T19:02:20+02:00</time>
      </trkpt>
      <trkpt lat="43.63282" lon="7.04225">
        <ele>121</ele>
        <time>2021-04-12T19:02:25+02:00</time>
      </trkpt>
      <trkpt lat="43.63307" lon="7.04248">
        <ele>114</ele>
        <time>2021-04-12T19:02:30+02:00</time>
      </trkpt>
      <trkpt lat="43.63339" lon="7.04266">
        <ele>110</ele>
        <time>2021-04-12T19:02:35+02:00</time>
      </trkpt>
      <trkpt lat="43.63351" lon="7.04277">
        <ele>106</ele>
        <time>2021-04-12T19:02:40+02:00</time>
      </trkpt>
      <trkpt lat="43.63357" lon="7.04304">
        <ele>106</ele>
        <time>2021-04-12T19:02:45+02:00</time>
      </trkpt>
      <trkpt lat="43.63372" lon="7.04322">
        <ele>105</ele>
        <time>2021-04-12T19:02:50+02:00</time>
      </trkpt>
      <trkpt lat="43.63387" lon="7.0435">
        <ele>105</ele>
        <time>2021-04-12T19:02:55+02:00</time>
      </trkpt>
      <trkpt lat="43.63422" lon="7.04412">
        <ele>101</ele>
        <time>2021-04-12T19:03:00+02:00</time>
      </trkpt>
      <trkpt lat="43.6344" lon="7.04443">
        <ele>100</ele>
        <time>2021-04-12T19:03:05+02:00</time>
      </trkpt>
      <trkpt lat="43.6345" lon="7.04474">
        <ele>99</ele>
        <time>2021-04-12T19:03:10+02:00</time>
      </trkpt>
      <trkpt lat="43.63463" lon="7.04515">
        <ele>100</ele>
        <time>2021-04-12T19:03:15+02:00</time>
      </trkpt>
      <trkpt lat="43.63472" lon="7.04542">
        <ele>99</ele>
        <time>2021-04-12T19:03:20+02:00</time>
      </trkpt>
      <trkpt lat="43.63489" lon="7.04569">
        <ele>99</ele>
        <time>2021-04-12T19:03:25+02:00</time>
      </trkpt>
      <trkpt lat="43.63517" lon="7.04535">
        <ele>102</ele>
        <time>2021-04-12T19:03:30+02:00</time>
      </trkpt>
      <trkpt lat="43.63537" lon="7.04572">
        <ele>106</ele>
        <time>2021-04-12T19:03:35+02:00</time>
      </trkpt>
      <trkpt lat="43.6354" lon="7.04627">
        <ele>114</ele>
        <time>2021-04-12T19:03:40+02:00</time>
      </trkpt>
      <trkpt lat="43.63536" lon="7.04662">
        <ele>113</ele>
        <time>2021-04-12T19:03:45+02:00</time>
      </trkpt>
      <trkpt lat="43.63575" lon="7.04732">
        <ele>117</ele>
        <time>2021-04-12T19:03:50+02:00</time>
      </trkpt>
      <trkpt lat="43.63652" lon="7.04689">
        <ele>120</ele>
        <time>2021-04-12T19:03:55+02:00</time>
      </trkpt>
      <trkpt lat="43.6369" lon="7.04678">
        <ele>119</ele>
        <time>2021-04-12T19:04:00+02:00</time>
      </trkpt>
      <trkpt lat="43.6373" lon="7.04656">
        <ele>122</ele>
        <time>2021-04-12T19:04:05+02:00</time>
      </trkpt>
      <trkpt lat="43.63731" lon="7.04662">
        <ele>121</ele>
        <time>2021-04-12T19:04:10+02:00</time>
      </trkpt>
      <trkpt lat="43.6373" lon="7.04656">
        <ele>122</ele>
        <time>2021-04-12T19:04:15+02:00</time>
      </trkpt>
      <trkpt lat="43.63767" lon="7.04635">
        <ele>124</ele>
        <time>2021-04-12T19:04:20+02:00</time>
      </trkpt>
      <trkpt lat="43.638" lon="7.04634">
        <ele>127</ele>
        <time>2021-04-12T19:04:25+02:00</time>
      </trkpt>
      <trkpt lat="43.63845" lon="7.04634">
        <ele>131</ele>
        <time>2021-04-12T19:04:30+02:00</time>
      </trkpt>
      <trkpt lat="43.6386" lon="7.04635">
        <ele>132</ele>
        <time>2021-04-12T19:04:35+02:00</time>
      </trkpt>
      <trkpt lat="43.63866" lon="7.04639">
        <ele>132</ele>
        <time>2021-04-12T19:04:40+02:00</time>
      </trkpt>
      <trkpt lat="43.63888" lon="7.04658">
        <ele>133</ele>
        <time>2021-04-12T19:04:45+02:00</time>
      </trkpt>
      <trkpt lat="43.63908" lon="7.04672">
        <ele>134</ele>
        <time>2021-04-12T19:04:50+02:00</time>
      </trkpt>
      <trkpt lat="43.63939" lon="7.04698">
        <ele>137</ele>
        <time>2021-04-12T19:04:55+02:00</time>
      </trkpt>
      <trkpt lat="43.63939" lon="7.04698">
        <ele>137</ele>
        <time>2021-04-12T19:05:00+02:00</time>
      </trkpt>
      <trkpt lat="43.63957" lon="7.04713">
        <ele>139</ele>
        <time>2021-04-12T19:05:05+02:00</time>
      </trkpt>
      <trkpt lat="43.63982" lon="7.04736">
        <ele>140</ele>
        <time>2021-04-12T19:05:10+02:00</time>
      </trkpt>
      <trkpt lat="43.63992" lon="7.04749">
        <ele>140</ele>
        <time>2021-04-12T19:05:15+02:00</time>
      </trkpt>
      <trkpt lat="43.64005" lon="7.04759">
        <ele>140</ele>
        <time>2021-04-12T19:05:20+02:00</time>
      </trkpt>
      <trkpt lat="43.64018" lon="7.04756">
        <ele>141</ele>
        <time>2021-04-12T19:05:25+02:00</time>
      </trkpt>
      <trkpt lat="43.64053" lon="7.04747">
        <ele>142</ele>
        <time>2021-04-12T19:05:30+02:00</time>
      </trkpt>
      <trkpt lat="43.64082" lon="7.0474">
        <ele>145</ele>
        <time>2021-04-12T19:05:35+02:00</time>
      </trkpt>
      <trkpt lat="43.64085" lon="7.04734">
        <ele>146</ele>
        <time>2021-04-12T19:05:40+02:00</time>
      </trkpt>
      <trkpt lat="43.64084" lon="7.04719">
        <ele>147</ele>
        <time>2021-04-12T19:05:45+02:00</time>
      </trkpt>
      <trkpt lat="43.64088" lon="7.04711">
        <ele>148</ele>
        <time>2021-04-12T19:05:50+02:00</time>
      </trkpt>
      <trkpt lat="43.64092" lon="7.0471">
        <ele>148</ele>
        <time>2021-04-12T19:05:55+02:00</time>
      </trkpt>
      <trkpt lat="43.64101" lon="7.04704">
        <ele>149</ele>
        <time>2021-04-12T19:06:00+02:00</time>
      </trkpt>
      <trkpt lat="43.64101" lon="7.04702">
        <ele>149</ele>
        <time>2021-04-12T19:06:05+02:00</time>
      </trkpt>
      <trkpt lat="43.64101" lon="7.04701">
        <ele>149</ele>
        <time>2021-04-12T19:06:10+02:00</time>
      </trkpt>
      <trkpt lat="43.64102" lon="7.04699">
        <ele>149</ele>
        <time>2021-04-12T19:06:15+02:00</time>
      </trkpt>
      <trkpt lat="43.64103" lon="7.04699">
        <ele>149</ele>
        <time>2021-04-12T19:06:20+02:00</time>
      </trkpt>
      <trkpt lat="43.64116" lon="7.04695">
        <ele>149</ele>
        <time>2021-04-12T19:06:25+02:00</time>
      </trkpt>
      <trkpt lat="43.64117" lon="7.04696">
        <ele>149</ele>
        <time>2021-04-12T19:06:30+02:00</time>
      </trkpt>
      <trkpt lat="43.64116" lon="7.04695">
        <ele>149</ele>
        <time>2021-04-12T19:06:35+02:00</time>
      </trkpt>
      <trkpt lat="43.64119" lon="7.04694">
        <ele>149</ele>
        <time>2021-04-12T19:06:40+02:00</time>
      </trkpt>
      <trkpt lat="43.64122" lon="7.04694">
        <ele>149</ele>
        <time>2021-04-12T19:06:45+02:00</time>
      </trkpt>
      <trkpt lat="43.64123" lon="7.04697">
        <ele>149</ele>
        <time>2021-04-12T19:06:50+02:00</time>
      </trkpt>
      <trkpt lat="43.64134" lon="7.0469">
        <ele>150</ele>
        <time>2021-04-12T19:06:55+02:00</time>
      </trkpt>
      <trkpt lat="43.64134" lon="7.04689">
        <ele>150</ele>
        <time>2021-04-12T19:07:00+02:00</time>
      </trkpt>
      <trkpt lat="43.64135" lon="7.04688">
        <ele>150</ele>
        <time>2021-04-12T19:07:05+02:00</time>
      </trkpt>
      <trkpt lat="43.64135" lon="7.04687">
        <ele>150</ele>
        <time>2021-04-12T19:07:10+02:00</time>
      </trkpt>
      <trkpt lat="43.64137" lon="7.04687">
        <ele>150</ele>
        <time>2021-04-12T19:07:15+02:00</time>
      </trkpt>
      <trkpt lat="43.64139" lon="7.04689">
        <ele>150</ele>
        <time>2021-04-12T19:07:20+02:00</time>
      </trkpt>
      <trkpt lat="43.64148" lon="7.0468">
        <ele>150</ele>
        <time>2021-04-12T19:07:25+02:00</time>
      </trkpt>
      <trkpt lat="43.64163" lon="7.04678">
        <ele>150</ele>
        <time>2021-04-12T19:07:30+02:00</time>
      </trkpt>
      <trkpt lat="43.64171" lon="7.04678">
        <ele>150</ele>
        <time>2021-04-12T19:07:35+02:00</time>
      </trkpt>
      <trkpt lat="43.64179" lon="7.0468">
        <ele>150</ele>
        <time>2021-04-12T19:07:40+02:00</time>
      </trkpt>
      <trkpt lat="43.64188" lon="7.04681">
        <ele>150</ele>
        <time>2021-04-12T19:07:45+02:00</time>
      </trkpt>
      <trkpt lat="43.64198" lon="7.04683">
        <ele>150</ele>
        <time>2021-04-12T19:07:50+02:00</time>
      </trkpt>
      <trkpt lat="43.64211" lon="7.04679">
        <ele>150</ele>
        <time>2021-04-12T19:07:55+02:00</time>
      </trkpt>
      <trkpt lat="43.64228" lon="7.04667">
        <ele>150</ele>
        <time>2021-04-12T19:08:00+02:00</time>
      </trkpt>
      <trkpt lat="43.64242" lon="7.04651">
        <ele>150</ele>
        <time>2021-04-12T19:08:05+02:00</time>
      </trkpt>
      <trkpt lat="43.64249" lon="7.04653">
        <ele>150</ele>
        <time>2021-04-12T19:08:10+02:00</time>
      </trkpt>
      <trkpt lat="43.64258" lon="7.04648">
        <ele>150</ele>
        <time>2021-04-12T19:08:15+02:00</time>
      </trkpt>
      <trkpt lat="43.64266" lon="7.04642">
        <ele>150</ele>
        <time>2021-04-12T19:08:20+02:00</time>
      </trkpt>
      <trkpt lat="43.64276" lon="7.0464">
        <ele>150</ele>
        <time>2021-04-12T19:08:25+02:00</time>
      </trkpt>
      <trkpt lat="43.64293" lon="7.04631">
        <ele>151</ele>
        <time>2021-04-12T19:08:30+02:00</time>
      </trkpt>
      <trkpt lat="43.64304" lon="7.04628">
        <ele>151</ele>
        <time>2021-04-12T19:08:35+02:00</time>
      </trkpt>
      <trkpt lat="43.6433" lon="7.04636">
        <ele>157</ele>
        <time>2021-04-12T19:08:40+02:00</time>
      </trkpt>
      <trkpt lat="43.64346" lon="7.04669">
        <ele>160</ele>
        <time>2021-04-12T19:08:45+02:00</time>
      </trkpt>
      <trkpt lat="43.64344" lon="7.04703">
        <ele>159</ele>
        <time>2021-04-12T19:08:50+02:00</time>
      </trkpt>
      <trkpt lat="43.64382" lon="7.04711">
        <ele>160</ele>
        <time>2021-04-12T19:08:55+02:00</time>
      </trkpt>
      <trkpt lat="43.64401" lon="7.04714">
        <ele>161</ele>
        <time>2021-04-12T19:09:00+02:00</time>
      </trkpt>
      <trkpt lat="43.64418" lon="7.04701">
        <ele>162</ele>
        <time>2021-04-12T19:09:05+02:00</time>
      </trkpt>
      <trkpt lat="43.6442" lon="7.04717">
        <ele>162</ele>
        <time>2021-04-12T19:09:10+02:00</time>
      </trkpt>
      <trkpt lat="43.64421" lon="7.04731">
        <ele>162</ele>
        <time>2021-04-12T19:09:15+02:00</time>
      </trkpt>
      <trkpt lat="43.64421" lon="7.04745">
        <ele>162</ele>
        <time>2021-04-12T19:09:20+02:00</time>
      </trkpt>
      <trkpt lat="43.64421" lon="7.04761">
        <ele>161</ele>
        <time>2021-04-12T19:09:25+02:00</time>
      </trkpt>
      <trkpt lat="43.64421" lon="7.04777">
        <ele>161</ele>
        <time>2021-04-12T19:09:30+02:00</time>
      </trkpt>
      <trkpt lat="43.64419" lon="7.04813">
        <ele>162</ele>
        <time>2021-04-12T19:09:35+02:00</time>
      </trkpt>
      <trkpt lat="43.64419" lon="7.04831">
        <ele>162</ele>
        <time>2021-04-12T19:09:40+02:00</time>
      </trkpt>
      <trkpt lat="43.64419" lon="7.04862">
        <ele>164</ele>
        <time>2021-04-12T19:09:45+02:00</time>
      </trkpt>
      <trkpt lat="43.6442" lon="7.0488">
        <ele>165</ele>
        <time>2021-04-12T19:09:50+02:00</time>
      </trkpt>
      <trkpt lat="43.64421" lon="7.04898">
        <ele>166</ele>
        <time>2021-04-12T19:09:55+02:00</time>
      </trkpt>
      <trkpt lat="43.64418" lon="7.04915">
        <ele>166</ele>
        <time>2021-04-12T19:10:00+02:00</time>
      </trkpt>
      <trkpt lat="43.64415" lon="7.04917">
        <ele>166</ele>
        <time>2021-04-12T19:10:05+02:00</time>
      </trkpt>
      <trkpt lat="43.64411" lon="7.04925">
        <ele>166</ele>
        <time>2021-04-12T19:10:10+02:00</time>
      </trkpt>
      <trkpt lat="43.64408" lon="7.04938">
        <ele>166</ele>
        <time>2021-04-12T19:10:15+02:00</time>
      </trkpt>
      <trkpt lat="43.64404" lon="7.04944">
        <ele>167</ele>
        <time>2021-04-12T19:10:20+02:00</time>
      </trkpt>
      <trkpt lat="43.64401" lon="7.0495">
        <ele>167</ele>
        <time>2021-04-12T19:10:25+02:00</time>
      </trkpt>
      <trkpt lat="43.64392" lon="7.04957">
        <ele>167</ele>
        <time>2021-04-12T19:10:30+02:00</time>
      </trkpt>
      <trkpt lat="43.64382" lon="7.04964">
        <ele>167</ele>
        <time>2021-04-12T19:10:35+02:00</time>
      </trkpt>
      <trkpt lat="43.64377" lon="7.04968">
        <ele>167</ele>
        <time>2021-04-12T19:10:40+02:00</time>
      </trkpt>
      <trkpt lat="43.64366" lon="7.04975">
        <ele>167</ele>
        <time>2021-04-12T19:10:45+02:00</time>
      </trkpt>
      <trkpt lat="43.64336" lon="7.04993">
        <ele>169</ele>
        <time>2021-04-12T19:10:50+02:00</time>
      </trkpt>
      <trkpt lat="43.64321" lon="7.05003">
        <ele>170</ele>
        <time>2021-04-12T19:10:55+02:00</time>
      </trkpt>
      <trkpt lat="43.64314" lon="7.05008">
        <ele>170</ele>
        <time>2021-04-12T19:11:00+02:00</time>
      </trkpt>
      <trkpt lat="43.6431" lon="7.05011">
        <ele>170</ele>
        <time>2021-04-12T19:11:05+02:00</time>
      </trkpt>
      <trkpt lat="43.64306" lon="7.05016">
        <ele>171</ele>
        <time>2021-04-12T19:11:10+02:00</time>
      </trkpt>
      <trkpt lat="43.64304" lon="7.05023">
        <ele>171</ele>
        <time>2021-04-12T19:11:15+02:00</time>
      </trkpt>
      <trkpt lat="43.64303" lon="7.0503">
        <ele>171</ele>
        <time>2021-04-12T19:11:20+02:00</time>
      </trkpt>
      <trkpt lat="43.64302" lon="7.05049">
        <ele>172</ele>
        <time>2021-04-12T19:11:25+02:00</time>
      </trkpt>
      <trkpt lat="43.64302" lon="7.05057">
        <ele>172</ele>
        <time>2021-04-12T19:11:30+02:00</time>
      </trkpt>
      <trkpt lat="43.64302" lon="7.05057">
        <ele>172</ele>
        <time>2021-04-12T19:11:35+02:00</time>
      </trkpt>
      <trkpt lat="43.64302" lon="7.05057">
        <ele>172</ele>
        <time>2021-04-12T19:11:40+02:00</time>
      </trkpt>
      <trkpt lat="43.643" lon="7.05093">
        <ele>174</ele>
        <time>2021-04-12T19:11:45+02:00</time>
      </trkpt>
      <trkpt lat="43.64296" lon="7.05138">
        <ele>175</ele>
        <time>2021-04-12T19:11:50+02:00</time>
      </trkpt>
      <trkpt lat="43.64302" lon="7.0514">
        <ele>175</ele>
        <time>2021-04-12T19:11:55+02:00</time>
      </trkpt>
      <trkpt lat="43.64312" lon="7.05163">
        <ele>175</ele>
        <time>2021-04-12T19:12:00+02:00</time>
      </trkpt>
      <trkpt lat="43.64321" lon="7.05167">
        <ele>174</ele>
        <time>2021-04-12T19:12:05+02:00</time>
      </trkpt>
      <trkpt lat="43.64332" lon="7.05168">
        <ele>174</ele>
        <time>2021-04-12T19:12:10+02:00</time>
      </trkpt>
      <trkpt lat="43.64336" lon="7.05168">
        <ele>174</ele>
        <time>2021-04-12T19:12:15+02:00</time>
      </trkpt>
      <trkpt lat="43.64365" lon="7.0516">
        <ele>172</ele>
        <time>2021-04-12T19:12:20+02:00</time>
      </trkpt>
      <trkpt lat="43.64386" lon="7.0515">
        <ele>171</ele>
        <time>2021-04-12T19:12:25+02:00</time>
      </trkpt>
      <trkpt lat="43.64389" lon="7.0515">
        <ele>171</ele>
        <time>2021-04-12T19:12:30+02:00</time>
      </trkpt>
      <trkpt lat="43.64411" lon="7.05157">
        <ele>170</ele>
        <time>2021-04-12T19:12:35+02:00</time>
      </trkpt>
      <trkpt lat="43.64467" lon="7.05168">
        <ele>170</ele>
        <time>2021-04-12T19:12:40+02:00</time>
      </trkpt>
      <trkpt lat="43.64496" lon="7.05175">
        <ele>170</ele>
        <time>2021-04-12T19:12:45+02:00</time>
      </trkpt>
      <trkpt lat="43.64518" lon="7.05184">
        <ele>169</ele>
        <time>2021-04-12T19:12:50+02:00</time>
      </trkpt>
      <trkpt lat="43.64557" lon="7.05205">
        <ele>165</ele>
        <time>2021-04-12T19:12:55+02:00</time>
      </trkpt>
      <trkpt lat="43.6458" lon="7.05222">
        <ele>163</ele>
        <time>2021-04-12T19:13:00+02:00</time>
      </trkpt>
      <trkpt lat="43.64611" lon="7.05248">
        <ele>162</ele>
        <time>2021-04-12T19:13:05+02:00</time>
      </trkpt>
      <trkpt lat="43.64625" lon="7.05258">
        <ele>162</ele>
        <time>2021-04-12T19:13:10+02:00</time>
      </trkpt>
      <trkpt lat="43.64642" lon="7.05282">
        <ele>162</ele>
        <time>2021-04-12T19:13:15+02:00</time>
      </trkpt>
      <trkpt lat="43.64654" lon="7.05298">
        <ele>162</ele>
        <time>2021-04-12T19:13:20+02:00</time>
      </trkpt>
      <trkpt lat="43.6466" lon="7.05306">
        <ele>162</ele>
        <time>2021-04-12T19:13:25+02:00</time>
      </trkpt>
      <trkpt lat="43.64671" lon="7.05326">
        <ele>161</ele>
        <time>2021-04-12T19:13:30+02:00</time>
      </trkpt>
      <trkpt lat="43.64679" lon="7.05344">
        <ele>162</ele>
        <time>2021-04-12T19:13:35+02:00</time>
      </trkpt>
      <trkpt lat="43.64688" lon="7.05362">
        <ele>161</ele>
        <time>2021-04-12T19:13:40+02:00</time>
      </trkpt>
      <trkpt lat="43.64696" lon="7.05373">
        <ele>160</ele>
        <time>2021-04-12T19:13:45+02:00</time>
      </trkpt>
      <trkpt lat="43.64706" lon="7.05381">
        <ele>159</ele>
        <time>2021-04-12T19:13:50+02:00</time>
      </trkpt>
      <trkpt lat="43.6471" lon="7.05384">
        <ele>159</ele>
        <time>2021-04-12T19:13:55+02:00</time>
      </trkpt>
      <trkpt lat="43.64713" lon="7.05392">
        <ele>158</ele>
        <time>2021-04-12T19:14:00+02:00</time>
      </trkpt>
      <trkpt lat="43.6472" lon="7.05417">
        <ele>157</ele>
        <time>2021-04-12T19:14:05+02:00</time>
      </trkpt>
      <trkpt lat="43.64721" lon="7.05425">
        <ele>157</ele>
        <time>2021-04-12T19:14:10+02:00</time>
      </trkpt>
      <trkpt lat="43.64721" lon="7.05432">
        <ele>157</ele>
        <time>2021-04-12T19:14:15+02:00</time>
      </trkpt>
      <trkpt lat="43.6472" lon="7.05454">
        <ele>157</ele>
        <time>2021-04-12T19:14:20+02:00</time>
      </trkpt>
      <trkpt lat="43.6472" lon="7.05464">
        <ele>157</ele>
        <time>2021-04-12T19:14:25+02:00</time>
      </trkpt>
      <trkpt lat="43.64727" lon="7.05523">
        <ele>155</ele>
        <time>2021-04-12T19:14:30+02:00</time>
      </trkpt>
      <trkpt lat="43.64733" lon="7.0554">
        <ele>153</ele>
        <time>2021-04-12T19:14:35+02:00</time>
      </trkpt>
      <trkpt lat="43.64738" lon="7.05551">
        <ele>152</ele>
        <time>2021-04-12T19:14:40+02:00</time>
      </trkpt>
      <trkpt lat="43.64742" lon="7.05556">
        <ele>151</ele>
        <time>2021-04-12T19:14:45+02:00</time>
      </trkpt>
      <trkpt lat="43.64745" lon="7.05558">
        <ele>151</ele>
        <time>2021-04-12T19:14:50+02:00</time>
      </trkpt>
      <trkpt lat="43.64748" lon="7.05558">
        <ele>150</ele>
        <time>2021-04-12T19:14:55+02:00</time>
      </trkpt>
      <trkpt lat="43.64751" lon="7.05556">
        <ele>150</ele>
        <time>2021-04-12T19:15:00+02:00</time>
      </trkpt>
      <trkpt lat="43.64758" lon="7.05552">
        <ele>150</ele>
        <time>2021-04-12T19:15:05+02:00</time>
      </trkpt>
      <trkpt lat="43.64766" lon="7.05546">
        <ele>151</ele>
        <time>2021-04-12T19:15:10+02:00</time>
      </trkpt>
      <trkpt lat="43.64776" lon="7.05541">
        <ele>152</ele>
        <time>2021-04-12T19:15:15+02:00</time>
      </trkpt>
      <trkpt lat="43.64785" lon="7.05538">
        <ele>153</ele>
        <time>2021-04-12T19:15:20+02:00</time>
      </trkpt>
      <trkpt lat="43.64797" lon="7.05536">
        <ele>154</ele>
        <time>2021-04-12T19:15:25+02:00</time>
      </trkpt>
      <trkpt lat="43.64823" lon="7.0553">
        <ele>157</ele>
        <time>2021-04-12T19:15:30+02:00</time>
      </trkpt>
      <trkpt lat="43.64836" lon="7.05529">
        <ele>158</ele>
        <time>2021-04-12T19:15:35+02:00</time>
      </trkpt>
      <trkpt lat="43.64848" lon="7.05526">
        <ele>159</ele>
        <time>2021-04-12T19:15:40+02:00</time>
      </trkpt>
      <trkpt lat="43.64861" lon="7.05526">
        <ele>159</ele>
        <time>2021-04-12T19:15:45+02:00</time>
      </trkpt>
      <trkpt lat="43.64864" lon="7.05523">
        <ele>160</ele>
        <time>2021-04-12T19:15:50+02:00</time>
      </trkpt>
      <trkpt lat="43.64861" lon="7.05526">
        <ele>159</ele>
        <time>2021-04-12T19:15:55+02:00</time>
      </trkpt>
      <trkpt lat="43.64884" lon="7.05536">
        <ele>160</ele>
        <time>2021-04-12T19:16:00+02:00</time>
      </trkpt>
      <trkpt lat="43.64894" lon="7.05539">
        <ele>161</ele>
        <time>2021-04-12T19:16:05+02:00</time>
      </trkpt>
      <trkpt lat="43.6492" lon="7.05538">
        <ele>163</ele>
        <time>2021-04-12T19:16:10+02:00</time>
      </trkpt>
      <trkpt lat="43.64931" lon="7.0554">
        <ele>165</ele>
        <time>2021-04-12T19:16:15+02:00</time>
      </trkpt>
      <trkpt lat="43.65041" lon="7.05593">
        <ele>169</ele>
        <time>2021-04-12T19:16:20+02:00</time>
      </trkpt>
      <trkpt lat="43.65054" lon="7.05604">
        <ele>169</ele>
        <time>2021-04-12T19:16:25+02:00</time>
      </trkpt>
      <trkpt lat="43.65069" lon="7.05612">
        <ele>169</ele>
        <time>2021-04-12T19:16:30+02:00</time>
      </trkpt>
      <trkpt lat="43.65083" lon="7.05627">
        <ele>168</ele>
        <time>2021-04-12T19:16:35+02:00</time>
      </trkpt>
      <trkpt lat="43.65128" lon="7.05636">
        <ele>159</ele>
        <time>2021-04-12T19:16:40+02:00</time>
      </trkpt>
      <trkpt lat="43.65156" lon="7.05646">
        <ele>154</ele>
        <time>2021-04-12T19:16:45+02:00</time>
      </trkpt>
      <trkpt lat="43.65171" lon="7.05664">
        <ele>153</ele>
        <time>2021-04-12T19:16:50+02:00</time>
      </trkpt>
      <trkpt lat="43.65222" lon="7.05644">
        <ele>145</ele>
        <time>2021-04-12T19:16:55+02:00</time>
      </trkpt>
      <trkpt lat="43.65237" lon="7.05643">
        <ele>144</ele>
        <time>2021-04-12T19:17:00+02:00</time>
      </trkpt>
      <trkpt lat="43.65321" lon="7.05623">
        <ele>136</ele>
        <time>2021-04-12T19:17:05+02:00</time>
      </trkpt>
      <trkpt lat="43.65374" lon="7.05606">
        <ele>129</ele>
        <time>2021-04-12T19:17:10+02:00</time>
      </trkpt>
      <trkpt lat="43.65384" lon="7.05595">
        <ele>128</ele>
        <time>2021-04-12T19:17:15+02:00</time>
      </trkpt>
      <trkpt lat="43.65389" lon="7.05592">
        <ele>127</ele>
        <time>2021-04-12T19:17:20+02:00</time>
      </trkpt>
      <trkpt lat="43.65412" lon="7.05592">
        <ele>122</ele>
        <time>2021-04-12T19:17:25+02:00</time>
      </trkpt>
      <trkpt lat="43.65429" lon="7.05593">
        <ele>118</ele>
        <time>2021-04-12T19:17:30+02:00</time>
      </trkpt>
      <trkpt lat="43.65434" lon="7.05599">
        <ele>117</ele>
        <time>2021-04-12T19:17:35+02:00</time>
      </trkpt>
      <trkpt lat="43.65441" lon="7.05611">
        <ele>114</ele>
        <time>2021-04-12T19:17:40+02:00</time>
      </trkpt>
      <trkpt lat="43.65448" lon="7.05638">
        <ele>112</ele>
        <time>2021-04-12T19:17:45+02:00</time>
      </trkpt>
      <trkpt lat="43.65458" lon="7.05628">
        <ele>111</ele>
        <time>2021-04-12T19:17:50+02:00</time>
      </trkpt>
      <trkpt lat="43.65486" lon="7.0562">
        <ele>110</ele>
        <time>2021-04-12T19:17:55+02:00</time>
      </trkpt>
      <trkpt lat="43.65493" lon="7.05616">
        <ele>110</ele>
        <time>2021-04-12T19:18:00+02:00</time>
      </trkpt>
      <trkpt lat="43.65503" lon="7.05603">
        <ele>111</ele>
        <time>2021-04-12T19:18:05+02:00</time>
      </trkpt>
      <trkpt lat="43.65515" lon="7.05601">
        <ele>113</ele>
        <time>2021-04-12T19:18:10+02:00</time>
      </trkpt>
      <trkpt lat="43.6553" lon="7.05602">
        <ele>115</ele>
        <time>2021-04-12T19:18:15+02:00</time>
      </trkpt>
      <trkpt lat="43.65541" lon="7.05601">
        <ele>117</ele>
        <time>2021-04-12T19:18:20+02:00</time>
      </trkpt>
      <trkpt lat="43.65583" lon="7.05566">
        <ele>122</ele>
        <time>2021-04-12T19:18:25+02:00</time>
      </trkpt>
      <trkpt lat="43.65615" lon="7.05535">
        <ele>123</ele>
        <time>2021-04-12T19:18:30+02:00</time>
      </trkpt>
      <trkpt lat="43.6563" lon="7.05518">
        <ele>124</ele>
        <time>2021-04-12T19:18:35+02:00</time>
      </trkpt>
      <trkpt lat="43.6565" lon="7.05492">
        <ele>126</ele>
        <time>2021-04-12T19:18:40+02:00</time>
      </trkpt>
      <trkpt lat="43.6568" lon="7.05467">
        <ele>130</ele>
        <time>2021-04-12T19:18:45+02:00</time>
      </trkpt>
      <trkpt lat="43.65687" lon="7.05464">
        <ele>132</ele>
        <time>2021-04-12T19:18:50+02:00</time>
      </trkpt>
      <trkpt lat="43.65697" lon="7.05455">
        <ele>135</ele>
        <time>2021-04-12T19:18:55+02:00</time>
      </trkpt>
      <trkpt lat="43.65716" lon="7.05453">
        <ele>136</ele>
        <time>2021-04-12T19:19:00+02:00</time>
      </trkpt>
      <trkpt lat="43.65731" lon="7.05462">
        <ele>134</ele>
        <time>2021-04-12T19:19:05+02:00</time>
      </trkpt>
      <trkpt lat="43.65741" lon="7.0547">
        <ele>132</ele>
        <time>2021-04-12T19:19:10+02:00</time>
      </trkpt>
      <trkpt lat="43.65751" lon="7.05479">
        <ele>132</ele>
        <time>2021-04-12T19:19:15+02:00</time>
      </trkpt>
      <trkpt lat="43.65796" lon="7.05492">
        <ele>133</ele>
        <time>2021-04-12T19:19:20+02:00</time>
      </trkpt>
      <trkpt lat="43.65795" lon="7.0551">
        <ele>132</ele>
        <time>2021-04-12T19:19:25+02:00</time>
      </trkpt>
      <trkpt lat="43.658" lon="7.05522">
        <ele>131</ele>
        <time>2021-04-12T19:19:30+02:00</time>
      </trkpt>
      <trkpt lat="43.65838" lon="7.05537">
        <ele>134</ele>
        <time>2021-04-12T19:19:35+02:00</time>
      </trkpt>
      <trkpt lat="43.65861" lon="7.05541">
        <ele>138</ele>
        <time>2021-04-12T19:19:40+02:00</time>
      </trkpt>
      <trkpt lat="43.65912" lon="7.0556">
        <ele>143</ele>
        <time>2021-04-12T19:19:45+02:00</time>
      </trkpt>
      <trkpt lat="43.65929" lon="7.05559">
        <ele>143</ele>
        <time>2021-04-12T19:19:50+02:00</time>
      </trkpt>
      <trkpt lat="43.65951" lon="7.0556">
        <ele>144</ele>
        <time>2021-04-12T19:19:55+02:00</time>
      </trkpt>
      <trkpt lat="43.65965" lon="7.0556">
        <ele>144</ele>
        <time>2021-04-12T19:20:00+02:00</time>
      </trkpt>
      <trkpt lat="43.65972" lon="7.05567">
        <ele>146</ele>
        <time>2021-04-12T19:20:05+02:00</time>
      </trkpt>
      <trkpt lat="43.65978" lon="7.05582">
        <ele>152</ele>
        <time>2021-04-12T19:20:10+02:00</time>
      </trkpt>
      <trkpt lat="43.65984" lon="7.05598">
        <ele>157</ele>
        <time>2021-04-12T19:20:15+02:00</time>
      </trkpt>
      <trkpt lat="43.65992" lon="7.05624">
        <ele>162</ele>
        <time>2021-04-12T19:20:20+02:00</time>
      </trkpt>
      <trkpt lat="43.66005" lon="7.05675">
        <ele>165</ele>
        <time>2021-04-12T19:20:25+02:00</time>
      </trkpt>
      <trkpt lat="43.66023" lon="7.05747">
        <ele>170</ele>
        <time>2021-04-12T19:20:30+02:00</time>
      </trkpt>
      <trkpt lat="43.66047" lon="7.05818">
        <ele>181</ele>
        <time>2021-04-12T19:20:35+02:00</time>
      </trkpt>
      <trkpt lat="43.66055" lon="7.05839">
        <ele>184</ele>
        <time>2021-04-12T19:20:40+02:00</time>
      </trkpt>
      <trkpt lat="43.66077" lon="7.05883">
        <ele>190</ele>
        <time>2021-04-12T19:20:45+02:00</time>
      </trkpt>
      <trkpt lat="43.66095" lon="7.05901">
        <ele>192</ele>
        <time>2021-04-12T19:20:50+02:00</time>
      </trkpt>
      <trkpt lat="43.66096" lon="7.05904">
        <ele>192</ele>
        <time>2021-04-12T19:20:55+02:00</time>
      </trkpt>
      <trkpt lat="43.66095" lon="7.05909">
        <ele>193</ele>
        <time>2021-04-12T19:21:00+02:00</time>
      </trkpt>
      <trkpt lat="43.66094" lon="7.05925">
        <ele>196</ele>
        <time>2021-04-12T19:21:05+02:00</time>
      </trkpt>
      <trkpt lat="43.66099" lon="7.05941">
        <ele>197</ele>
        <time>2021-04-12T19:21:10+02:00</time>
      </trkpt>
      <trkpt lat="43.6611" lon="7.05986">
        <ele>199</ele>
        <time>2021-04-12T19:21:15+02:00</time>
      </trkpt>
      <trkpt lat="43.66119" lon="7.06037">
        <ele>201</ele>
        <time>2021-04-12T19:21:20+02:00</time>
      </trkpt>
      <trkpt lat="43.66117" lon="7.06049">
        <ele>201</ele>
        <time>2021-04-12T19:21:25+02:00</time>
      </trkpt>
      <trkpt lat="43.6611" lon="7.06052">
        <ele>201</ele>
        <time>2021-04-12T19:21:30+02:00</time>
      </trkpt>
      <trkpt lat="43.66104" lon="7.06055">
        <ele>201</ele>
        <time>2021-04-12T19:21:35+02:00</time>
      </trkpt>
    </trkseg>
  </trk>
</gpx>